<?xml version="1.0" encoding="UTF-8" standalone="no" ?>
<gpx xmlns="http://www.topografix.com/GPX/1/1" xmlns:xsi="http://www.w3.org/2001/XMLSchema-instance" xsi:schemaLocation="http://www.topografix.com/GPX/1/1 http://www.topografix.com/GPX/1/1/gpx.xsd" version="1.1" creator="VisuGPX - https://www.visugpx.com">
  <metadata>
    <name>Massif de La Serre : Chatenois - Croix Boyon (Jura)</name>
    <desc><![CDATA[Randonnée pédestre effectuée le 16 avril 2018.]]></desc>
  </metadata>
  <trk>
    <name><![CDATA[20180416214459-t3ogk]]></name>
    <trkseg>
      <trkpt lat="47.14633" lon="5.55241">
        <ele>210</ele>
        <time>2018-04-16T07:01:11Z</time>
      </trkpt>
      <trkpt lat="47.14632" lon="5.55235">
        <ele>210</ele>
        <time>2018-04-16T07:01:15Z</time>
      </trkpt>
      <trkpt lat="47.14636" lon="5.55225">
        <ele>210</ele>
        <time>2018-04-16T07:02:52Z</time>
      </trkpt>
      <trkpt lat="47.14639" lon="5.5522">
        <ele>210</ele>
        <time>2018-04-16T07:02:59Z</time>
      </trkpt>
      <trkpt lat="47.14646" lon="5.55219">
        <ele>210</ele>
        <time>2018-04-16T07:03:10Z</time>
      </trkpt>
      <trkpt lat="47.14649" lon="5.55224">
        <ele>210</ele>
        <time>2018-04-16T07:03:14Z</time>
      </trkpt>
      <trkpt lat="47.14654" lon="5.55227">
        <ele>210</ele>
        <time>2018-04-16T07:03:19Z</time>
      </trkpt>
      <trkpt lat="47.14661" lon="5.55228">
        <ele>210</ele>
        <time>2018-04-16T07:03:26Z</time>
      </trkpt>
      <trkpt lat="47.14666" lon="5.5523">
        <ele>210</ele>
        <time>2018-04-16T07:03:31Z</time>
      </trkpt>
      <trkpt lat="47.14672" lon="5.55232">
        <ele>211</ele>
        <time>2018-04-16T07:03:40Z</time>
      </trkpt>
      <trkpt lat="47.14688" lon="5.55239">
        <ele>211</ele>
        <time>2018-04-16T07:03:52Z</time>
      </trkpt>
      <trkpt lat="47.14693" lon="5.55242">
        <ele>211</ele>
        <time>2018-04-16T07:03:57Z</time>
      </trkpt>
      <trkpt lat="47.14698" lon="5.55243">
        <ele>211</ele>
        <time>2018-04-16T07:04:01Z</time>
      </trkpt>
      <trkpt lat="47.14715" lon="5.55246">
        <ele>212</ele>
        <time>2018-04-16T07:04:13Z</time>
      </trkpt>
      <trkpt lat="47.1472" lon="5.55248">
        <ele>212</ele>
        <time>2018-04-16T07:04:18Z</time>
      </trkpt>
      <trkpt lat="47.14725" lon="5.5525">
        <ele>212</ele>
        <time>2018-04-16T07:04:23Z</time>
      </trkpt>
      <trkpt lat="47.14731" lon="5.55249">
        <ele>212</ele>
        <time>2018-04-16T07:04:29Z</time>
      </trkpt>
      <trkpt lat="47.14737" lon="5.55249">
        <ele>212</ele>
        <time>2018-04-16T07:04:35Z</time>
      </trkpt>
      <trkpt lat="47.14742" lon="5.5525">
        <ele>212</ele>
        <time>2018-04-16T07:04:39Z</time>
      </trkpt>
      <trkpt lat="47.14762" lon="5.55251">
        <ele>213</ele>
        <time>2018-04-16T07:04:56Z</time>
      </trkpt>
      <trkpt lat="47.14771" lon="5.55249">
        <ele>214</ele>
        <time>2018-04-16T07:05:03Z</time>
      </trkpt>
      <trkpt lat="47.14777" lon="5.55249">
        <ele>215</ele>
        <time>2018-04-16T07:05:08Z</time>
      </trkpt>
      <trkpt lat="47.14791" lon="5.55235">
        <ele>215</ele>
        <time>2018-04-16T07:05:20Z</time>
      </trkpt>
      <trkpt lat="47.14808" lon="5.55217">
        <ele>216</ele>
        <time>2018-04-16T07:05:36Z</time>
      </trkpt>
      <trkpt lat="47.14812" lon="5.55214">
        <ele>216</ele>
        <time>2018-04-16T07:05:40Z</time>
      </trkpt>
      <trkpt lat="47.14841" lon="5.55169">
        <ele>218</ele>
        <time>2018-04-16T07:06:13Z</time>
      </trkpt>
      <trkpt lat="47.14847" lon="5.55166">
        <ele>217</ele>
        <time>2018-04-16T07:06:17Z</time>
      </trkpt>
      <trkpt lat="47.14851" lon="5.55164">
        <ele>217</ele>
        <time>2018-04-16T07:06:21Z</time>
      </trkpt>
      <trkpt lat="47.14861" lon="5.55158">
        <ele>217</ele>
        <time>2018-04-16T07:06:29Z</time>
      </trkpt>
      <trkpt lat="47.14865" lon="5.55157">
        <ele>218</ele>
        <time>2018-04-16T07:06:32Z</time>
      </trkpt>
      <trkpt lat="47.14886" lon="5.55158">
        <ele>218</ele>
        <time>2018-04-16T07:06:48Z</time>
      </trkpt>
      <trkpt lat="47.14891" lon="5.55157">
        <ele>218</ele>
        <time>2018-04-16T07:06:52Z</time>
      </trkpt>
      <trkpt lat="47.14895" lon="5.55152">
        <ele>218</ele>
        <time>2018-04-16T07:06:56Z</time>
      </trkpt>
      <trkpt lat="47.14899" lon="5.55146">
        <ele>218</ele>
        <time>2018-04-16T07:07:00Z</time>
      </trkpt>
      <trkpt lat="47.14921" lon="5.55093">
        <ele>218</ele>
        <time>2018-04-16T07:07:31Z</time>
      </trkpt>
      <trkpt lat="47.14924" lon="5.55085">
        <ele>218</ele>
        <time>2018-04-16T07:07:35Z</time>
      </trkpt>
      <trkpt lat="47.14929" lon="5.55072">
        <ele>219</ele>
        <time>2018-04-16T07:07:43Z</time>
      </trkpt>
      <trkpt lat="47.14934" lon="5.55059">
        <ele>219</ele>
        <time>2018-04-16T07:07:50Z</time>
      </trkpt>
      <trkpt lat="47.14946" lon="5.55034">
        <ele>219</ele>
        <time>2018-04-16T07:08:05Z</time>
      </trkpt>
      <trkpt lat="47.14951" lon="5.5503">
        <ele>220</ele>
        <time>2018-04-16T07:08:10Z</time>
      </trkpt>
      <trkpt lat="47.14956" lon="5.55027">
        <ele>220</ele>
        <time>2018-04-16T07:08:14Z</time>
      </trkpt>
      <trkpt lat="47.1496" lon="5.55023">
        <ele>220</ele>
        <time>2018-04-16T07:08:19Z</time>
      </trkpt>
      <trkpt lat="47.14964" lon="5.55016">
        <ele>220</ele>
        <time>2018-04-16T07:08:23Z</time>
      </trkpt>
      <trkpt lat="47.14978" lon="5.54994">
        <ele>220</ele>
        <time>2018-04-16T07:08:36Z</time>
      </trkpt>
      <trkpt lat="47.15008" lon="5.54943">
        <ele>222</ele>
        <time>2018-04-16T07:09:09Z</time>
      </trkpt>
      <trkpt lat="47.1504" lon="5.54901">
        <ele>221</ele>
        <time>2018-04-16T07:09:42Z</time>
      </trkpt>
      <trkpt lat="47.15045" lon="5.54897">
        <ele>221</ele>
        <time>2018-04-16T07:09:46Z</time>
      </trkpt>
      <trkpt lat="47.1505" lon="5.54895">
        <ele>221</ele>
        <time>2018-04-16T07:09:50Z</time>
      </trkpt>
      <trkpt lat="47.15055" lon="5.54896">
        <ele>221</ele>
        <time>2018-04-16T07:09:53Z</time>
      </trkpt>
      <trkpt lat="47.1506" lon="5.54899">
        <ele>221</ele>
        <time>2018-04-16T07:09:58Z</time>
      </trkpt>
      <trkpt lat="47.15064" lon="5.54902">
        <ele>222</ele>
        <time>2018-04-16T07:10:01Z</time>
      </trkpt>
      <trkpt lat="47.15077" lon="5.5491">
        <ele>223</ele>
        <time>2018-04-16T07:10:11Z</time>
      </trkpt>
      <trkpt lat="47.15082" lon="5.54915">
        <ele>224</ele>
        <time>2018-04-16T07:10:15Z</time>
      </trkpt>
      <trkpt lat="47.1509" lon="5.54925">
        <ele>224</ele>
        <time>2018-04-16T07:10:24Z</time>
      </trkpt>
      <trkpt lat="47.15094" lon="5.54928">
        <ele>224</ele>
        <time>2018-04-16T07:10:28Z</time>
      </trkpt>
      <trkpt lat="47.15099" lon="5.54932">
        <ele>224</ele>
        <time>2018-04-16T07:10:32Z</time>
      </trkpt>
      <trkpt lat="47.15104" lon="5.54937">
        <ele>224</ele>
        <time>2018-04-16T07:10:36Z</time>
      </trkpt>
      <trkpt lat="47.15108" lon="5.54941">
        <ele>224</ele>
        <time>2018-04-16T07:10:40Z</time>
      </trkpt>
      <trkpt lat="47.15113" lon="5.54944">
        <ele>225</ele>
        <time>2018-04-16T07:10:44Z</time>
      </trkpt>
      <trkpt lat="47.15122" lon="5.54949">
        <ele>225</ele>
        <time>2018-04-16T07:10:50Z</time>
      </trkpt>
      <trkpt lat="47.15167" lon="5.54978">
        <ele>226</ele>
        <time>2018-04-16T07:11:28Z</time>
      </trkpt>
      <trkpt lat="47.15176" lon="5.54982">
        <ele>226</ele>
        <time>2018-04-16T07:11:35Z</time>
      </trkpt>
      <trkpt lat="47.15186" lon="5.54985">
        <ele>226</ele>
        <time>2018-04-16T07:11:42Z</time>
      </trkpt>
      <trkpt lat="47.15195" lon="5.54987">
        <ele>226</ele>
        <time>2018-04-16T07:11:49Z</time>
      </trkpt>
      <trkpt lat="47.15204" lon="5.54986">
        <ele>226</ele>
        <time>2018-04-16T07:11:56Z</time>
      </trkpt>
      <trkpt lat="47.15241" lon="5.54969">
        <ele>226</ele>
        <time>2018-04-16T07:12:24Z</time>
      </trkpt>
      <trkpt lat="47.15257" lon="5.54957">
        <ele>227</ele>
        <time>2018-04-16T07:12:37Z</time>
      </trkpt>
      <trkpt lat="47.15261" lon="5.54955">
        <ele>227</ele>
        <time>2018-04-16T07:12:41Z</time>
      </trkpt>
      <trkpt lat="47.15266" lon="5.54951">
        <ele>227</ele>
        <time>2018-04-16T07:12:45Z</time>
      </trkpt>
      <trkpt lat="47.1527" lon="5.54947">
        <ele>227</ele>
        <time>2018-04-16T07:12:49Z</time>
      </trkpt>
      <trkpt lat="47.15274" lon="5.54942">
        <ele>227</ele>
        <time>2018-04-16T07:12:53Z</time>
      </trkpt>
      <trkpt lat="47.15278" lon="5.54938">
        <ele>227</ele>
        <time>2018-04-16T07:12:57Z</time>
      </trkpt>
      <trkpt lat="47.15283" lon="5.54934">
        <ele>227</ele>
        <time>2018-04-16T07:13:01Z</time>
      </trkpt>
      <trkpt lat="47.15288" lon="5.54931">
        <ele>227</ele>
        <time>2018-04-16T07:13:05Z</time>
      </trkpt>
      <trkpt lat="47.15292" lon="5.54926">
        <ele>227</ele>
        <time>2018-04-16T07:13:09Z</time>
      </trkpt>
      <trkpt lat="47.15296" lon="5.54921">
        <ele>227</ele>
        <time>2018-04-16T07:13:13Z</time>
      </trkpt>
      <trkpt lat="47.15299" lon="5.54915">
        <ele>227</ele>
        <time>2018-04-16T07:13:17Z</time>
      </trkpt>
      <trkpt lat="47.15304" lon="5.5491">
        <ele>227</ele>
        <time>2018-04-16T07:13:21Z</time>
      </trkpt>
      <trkpt lat="47.15308" lon="5.54906">
        <ele>227</ele>
        <time>2018-04-16T07:13:25Z</time>
      </trkpt>
      <trkpt lat="47.15313" lon="5.54901">
        <ele>227</ele>
        <time>2018-04-16T07:13:29Z</time>
      </trkpt>
      <trkpt lat="47.15318" lon="5.54897">
        <ele>227</ele>
        <time>2018-04-16T07:13:33Z</time>
      </trkpt>
      <trkpt lat="47.15323" lon="5.5489">
        <ele>227</ele>
        <time>2018-04-16T07:13:38Z</time>
      </trkpt>
      <trkpt lat="47.15328" lon="5.54886">
        <ele>227</ele>
        <time>2018-04-16T07:13:42Z</time>
      </trkpt>
      <trkpt lat="47.15331" lon="5.54881">
        <ele>227</ele>
        <time>2018-04-16T07:13:45Z</time>
      </trkpt>
      <trkpt lat="47.15335" lon="5.54877">
        <ele>229</ele>
        <time>2018-04-16T07:13:49Z</time>
      </trkpt>
      <trkpt lat="47.15348" lon="5.54864">
        <ele>229</ele>
        <time>2018-04-16T07:14:01Z</time>
      </trkpt>
      <trkpt lat="47.15352" lon="5.5486">
        <ele>229</ele>
        <time>2018-04-16T07:14:05Z</time>
      </trkpt>
      <trkpt lat="47.15359" lon="5.5485">
        <ele>229</ele>
        <time>2018-04-16T07:14:12Z</time>
      </trkpt>
      <trkpt lat="47.15364" lon="5.54847">
        <ele>229</ele>
        <time>2018-04-16T07:14:16Z</time>
      </trkpt>
      <trkpt lat="47.15369" lon="5.54843">
        <ele>230</ele>
        <time>2018-04-16T07:14:21Z</time>
      </trkpt>
      <trkpt lat="47.15385" lon="5.54825">
        <ele>231</ele>
        <time>2018-04-16T07:14:36Z</time>
      </trkpt>
      <trkpt lat="47.15389" lon="5.54821">
        <ele>231</ele>
        <time>2018-04-16T07:14:40Z</time>
      </trkpt>
      <trkpt lat="47.15397" lon="5.54814">
        <ele>231</ele>
        <time>2018-04-16T07:14:48Z</time>
      </trkpt>
      <trkpt lat="47.15402" lon="5.54811">
        <ele>231</ele>
        <time>2018-04-16T07:14:52Z</time>
      </trkpt>
      <trkpt lat="47.15407" lon="5.54811">
        <ele>231</ele>
        <time>2018-04-16T07:14:56Z</time>
      </trkpt>
      <trkpt lat="47.15412" lon="5.54808">
        <ele>231</ele>
        <time>2018-04-16T07:15:00Z</time>
      </trkpt>
      <trkpt lat="47.15417" lon="5.54805">
        <ele>231</ele>
        <time>2018-04-16T07:15:04Z</time>
      </trkpt>
      <trkpt lat="47.15421" lon="5.54803">
        <ele>233</ele>
        <time>2018-04-16T07:15:08Z</time>
      </trkpt>
      <trkpt lat="47.15426" lon="5.54803">
        <ele>233</ele>
        <time>2018-04-16T07:15:12Z</time>
      </trkpt>
      <trkpt lat="47.15435" lon="5.54803">
        <ele>233</ele>
        <time>2018-04-16T07:15:20Z</time>
      </trkpt>
      <trkpt lat="47.15441" lon="5.54801">
        <ele>233</ele>
        <time>2018-04-16T07:15:24Z</time>
      </trkpt>
      <trkpt lat="47.15446" lon="5.54801">
        <ele>233</ele>
        <time>2018-04-16T07:15:29Z</time>
      </trkpt>
      <trkpt lat="47.15451" lon="5.548">
        <ele>233</ele>
        <time>2018-04-16T07:15:33Z</time>
      </trkpt>
      <trkpt lat="47.15462" lon="5.54802">
        <ele>234</ele>
        <time>2018-04-16T07:15:41Z</time>
      </trkpt>
      <trkpt lat="47.15467" lon="5.54804">
        <ele>234</ele>
        <time>2018-04-16T07:15:45Z</time>
      </trkpt>
      <trkpt lat="47.15472" lon="5.54805">
        <ele>234</ele>
        <time>2018-04-16T07:15:49Z</time>
      </trkpt>
      <trkpt lat="47.15482" lon="5.54805">
        <ele>234</ele>
        <time>2018-04-16T07:15:57Z</time>
      </trkpt>
      <trkpt lat="47.15487" lon="5.54802">
        <ele>234</ele>
        <time>2018-04-16T07:16:01Z</time>
      </trkpt>
      <trkpt lat="47.15492" lon="5.54801">
        <ele>234</ele>
        <time>2018-04-16T07:16:05Z</time>
      </trkpt>
      <trkpt lat="47.15497" lon="5.548">
        <ele>234</ele>
        <time>2018-04-16T07:16:10Z</time>
      </trkpt>
      <trkpt lat="47.15502" lon="5.54799">
        <ele>236</ele>
        <time>2018-04-16T07:16:14Z</time>
      </trkpt>
      <trkpt lat="47.15508" lon="5.54798">
        <ele>236</ele>
        <time>2018-04-16T07:16:18Z</time>
      </trkpt>
      <trkpt lat="47.15515" lon="5.54797">
        <ele>236</ele>
        <time>2018-04-16T07:16:23Z</time>
      </trkpt>
      <trkpt lat="47.1552" lon="5.54795">
        <ele>236</ele>
        <time>2018-04-16T07:16:27Z</time>
      </trkpt>
      <trkpt lat="47.15525" lon="5.54793">
        <ele>236</ele>
        <time>2018-04-16T07:16:31Z</time>
      </trkpt>
      <trkpt lat="47.15529" lon="5.5479">
        <ele>237</ele>
        <time>2018-04-16T07:16:34Z</time>
      </trkpt>
      <trkpt lat="47.15539" lon="5.54791">
        <ele>237</ele>
        <time>2018-04-16T07:16:42Z</time>
      </trkpt>
      <trkpt lat="47.15544" lon="5.54791">
        <ele>237</ele>
        <time>2018-04-16T07:16:46Z</time>
      </trkpt>
      <trkpt lat="47.15549" lon="5.5479">
        <ele>237</ele>
        <time>2018-04-16T07:16:50Z</time>
      </trkpt>
      <trkpt lat="47.15555" lon="5.5479">
        <ele>237</ele>
        <time>2018-04-16T07:16:55Z</time>
      </trkpt>
      <trkpt lat="47.1556" lon="5.5479">
        <ele>237</ele>
        <time>2018-04-16T07:16:59Z</time>
      </trkpt>
      <trkpt lat="47.15574" lon="5.5479">
        <ele>237</ele>
        <time>2018-04-16T07:17:10Z</time>
      </trkpt>
      <trkpt lat="47.1558" lon="5.54786">
        <ele>237</ele>
        <time>2018-04-16T07:17:14Z</time>
      </trkpt>
      <trkpt lat="47.15584" lon="5.54785">
        <ele>238</ele>
        <time>2018-04-16T07:17:18Z</time>
      </trkpt>
      <trkpt lat="47.15589" lon="5.54783">
        <ele>238</ele>
        <time>2018-04-16T07:17:22Z</time>
      </trkpt>
      <trkpt lat="47.15599" lon="5.5478">
        <ele>238</ele>
        <time>2018-04-16T07:17:30Z</time>
      </trkpt>
      <trkpt lat="47.15604" lon="5.54779">
        <ele>238</ele>
        <time>2018-04-16T07:17:34Z</time>
      </trkpt>
      <trkpt lat="47.15614" lon="5.54775">
        <ele>238</ele>
        <time>2018-04-16T07:17:42Z</time>
      </trkpt>
      <trkpt lat="47.15619" lon="5.54774">
        <ele>238</ele>
        <time>2018-04-16T07:17:45Z</time>
      </trkpt>
      <trkpt lat="47.15625" lon="5.54773">
        <ele>238</ele>
        <time>2018-04-16T07:17:50Z</time>
      </trkpt>
      <trkpt lat="47.15638" lon="5.54763">
        <ele>238</ele>
        <time>2018-04-16T07:18:02Z</time>
      </trkpt>
      <trkpt lat="47.15644" lon="5.5476">
        <ele>238</ele>
        <time>2018-04-16T07:18:08Z</time>
      </trkpt>
      <trkpt lat="47.15648" lon="5.54756">
        <ele>238</ele>
        <time>2018-04-16T07:18:12Z</time>
      </trkpt>
      <trkpt lat="47.15662" lon="5.54745">
        <ele>238</ele>
        <time>2018-04-16T07:18:25Z</time>
      </trkpt>
      <trkpt lat="47.15666" lon="5.54739">
        <ele>239</ele>
        <time>2018-04-16T07:18:28Z</time>
      </trkpt>
      <trkpt lat="47.1567" lon="5.54733">
        <ele>239</ele>
        <time>2018-04-16T07:18:32Z</time>
      </trkpt>
      <trkpt lat="47.15674" lon="5.5473">
        <ele>239</ele>
        <time>2018-04-16T07:18:36Z</time>
      </trkpt>
      <trkpt lat="47.15679" lon="5.54727">
        <ele>240</ele>
        <time>2018-04-16T07:18:40Z</time>
      </trkpt>
      <trkpt lat="47.15684" lon="5.54724">
        <ele>240</ele>
        <time>2018-04-16T07:18:44Z</time>
      </trkpt>
      <trkpt lat="47.15689" lon="5.5472">
        <ele>240</ele>
        <time>2018-04-16T07:18:48Z</time>
      </trkpt>
      <trkpt lat="47.15697" lon="5.5471">
        <ele>240</ele>
        <time>2018-04-16T07:18:55Z</time>
      </trkpt>
      <trkpt lat="47.15702" lon="5.54707">
        <ele>240</ele>
        <time>2018-04-16T07:19:00Z</time>
      </trkpt>
      <trkpt lat="47.15709" lon="5.54697">
        <ele>240</ele>
        <time>2018-04-16T07:19:07Z</time>
      </trkpt>
      <trkpt lat="47.15717" lon="5.5469">
        <ele>241</ele>
        <time>2018-04-16T07:19:15Z</time>
      </trkpt>
      <trkpt lat="47.15723" lon="5.54688">
        <ele>241</ele>
        <time>2018-04-16T07:19:20Z</time>
      </trkpt>
      <trkpt lat="47.15731" lon="5.54683">
        <ele>241</ele>
        <time>2018-04-16T07:19:28Z</time>
      </trkpt>
      <trkpt lat="47.15735" lon="5.54678">
        <ele>241</ele>
        <time>2018-04-16T07:19:32Z</time>
      </trkpt>
      <trkpt lat="47.15739" lon="5.54674">
        <ele>241</ele>
        <time>2018-04-16T07:19:36Z</time>
      </trkpt>
      <trkpt lat="47.15745" lon="5.54672">
        <ele>242</ele>
        <time>2018-04-16T07:19:41Z</time>
      </trkpt>
      <trkpt lat="47.1575" lon="5.54669">
        <ele>242</ele>
        <time>2018-04-16T07:19:45Z</time>
      </trkpt>
      <trkpt lat="47.15755" lon="5.54666">
        <ele>242</ele>
        <time>2018-04-16T07:19:50Z</time>
      </trkpt>
      <trkpt lat="47.1576" lon="5.54664">
        <ele>242</ele>
        <time>2018-04-16T07:19:54Z</time>
      </trkpt>
      <trkpt lat="47.15764" lon="5.54661">
        <ele>242</ele>
        <time>2018-04-16T07:19:58Z</time>
      </trkpt>
      <trkpt lat="47.15769" lon="5.5466">
        <ele>243</ele>
        <time>2018-04-16T07:20:03Z</time>
      </trkpt>
      <trkpt lat="47.15774" lon="5.54657">
        <ele>243</ele>
        <time>2018-04-16T07:20:07Z</time>
      </trkpt>
      <trkpt lat="47.15779" lon="5.54656">
        <ele>243</ele>
        <time>2018-04-16T07:20:11Z</time>
      </trkpt>
      <trkpt lat="47.15784" lon="5.54654">
        <ele>243</ele>
        <time>2018-04-16T07:20:15Z</time>
      </trkpt>
      <trkpt lat="47.15789" lon="5.54652">
        <ele>243</ele>
        <time>2018-04-16T07:20:19Z</time>
      </trkpt>
      <trkpt lat="47.15794" lon="5.54649">
        <ele>243</ele>
        <time>2018-04-16T07:20:23Z</time>
      </trkpt>
      <trkpt lat="47.15799" lon="5.54647">
        <ele>243</ele>
        <time>2018-04-16T07:20:27Z</time>
      </trkpt>
      <trkpt lat="47.15809" lon="5.54642">
        <ele>243</ele>
        <time>2018-04-16T07:20:35Z</time>
      </trkpt>
      <trkpt lat="47.15814" lon="5.54641">
        <ele>244</ele>
        <time>2018-04-16T07:20:39Z</time>
      </trkpt>
      <trkpt lat="47.15836" lon="5.54635">
        <ele>245</ele>
        <time>2018-04-16T07:20:54Z</time>
      </trkpt>
      <trkpt lat="47.15847" lon="5.54631">
        <ele>245</ele>
        <time>2018-04-16T07:21:05Z</time>
      </trkpt>
      <trkpt lat="47.15865" lon="5.54621">
        <ele>245</ele>
        <time>2018-04-16T07:21:19Z</time>
      </trkpt>
      <trkpt lat="47.1587" lon="5.54618">
        <ele>245</ele>
        <time>2018-04-16T07:21:23Z</time>
      </trkpt>
      <trkpt lat="47.15874" lon="5.54615">
        <ele>245</ele>
        <time>2018-04-16T07:21:27Z</time>
      </trkpt>
      <trkpt lat="47.15883" lon="5.54606">
        <ele>245</ele>
        <time>2018-04-16T07:21:35Z</time>
      </trkpt>
      <trkpt lat="47.15887" lon="5.54602">
        <ele>245</ele>
        <time>2018-04-16T07:21:39Z</time>
      </trkpt>
      <trkpt lat="47.15891" lon="5.54599">
        <ele>245</ele>
        <time>2018-04-16T07:21:43Z</time>
      </trkpt>
      <trkpt lat="47.15896" lon="5.54593">
        <ele>245</ele>
        <time>2018-04-16T07:21:47Z</time>
      </trkpt>
      <trkpt lat="47.15899" lon="5.54589">
        <ele>244</ele>
        <time>2018-04-16T07:21:50Z</time>
      </trkpt>
      <trkpt lat="47.15902" lon="5.54583">
        <ele>243</ele>
        <time>2018-04-16T07:21:53Z</time>
      </trkpt>
      <trkpt lat="47.15905" lon="5.54578">
        <ele>243</ele>
        <time>2018-04-16T07:21:57Z</time>
      </trkpt>
      <trkpt lat="47.15916" lon="5.54562">
        <ele>243</ele>
        <time>2018-04-16T07:22:09Z</time>
      </trkpt>
      <trkpt lat="47.15919" lon="5.54556">
        <ele>245</ele>
        <time>2018-04-16T07:22:14Z</time>
      </trkpt>
      <trkpt lat="47.15922" lon="5.5455">
        <ele>246</ele>
        <time>2018-04-16T07:22:18Z</time>
      </trkpt>
      <trkpt lat="47.15925" lon="5.54544">
        <ele>246</ele>
        <time>2018-04-16T07:22:22Z</time>
      </trkpt>
      <trkpt lat="47.15929" lon="5.54538">
        <ele>246</ele>
        <time>2018-04-16T07:22:26Z</time>
      </trkpt>
      <trkpt lat="47.15933" lon="5.54531">
        <ele>246</ele>
        <time>2018-04-16T07:22:30Z</time>
      </trkpt>
      <trkpt lat="47.15935" lon="5.54525">
        <ele>246</ele>
        <time>2018-04-16T07:22:33Z</time>
      </trkpt>
      <trkpt lat="47.15938" lon="5.5452">
        <ele>246</ele>
        <time>2018-04-16T07:22:37Z</time>
      </trkpt>
      <trkpt lat="47.15944" lon="5.54513">
        <ele>246</ele>
        <time>2018-04-16T07:22:44Z</time>
      </trkpt>
      <trkpt lat="47.15948" lon="5.54507">
        <ele>246</ele>
        <time>2018-04-16T07:22:48Z</time>
      </trkpt>
      <trkpt lat="47.15957" lon="5.5449">
        <ele>247</ele>
        <time>2018-04-16T07:22:58Z</time>
      </trkpt>
      <trkpt lat="47.15965" lon="5.5448">
        <ele>247</ele>
        <time>2018-04-16T07:23:06Z</time>
      </trkpt>
      <trkpt lat="47.15969" lon="5.54479">
        <ele>247</ele>
        <time>2018-04-16T07:23:11Z</time>
      </trkpt>
      <trkpt lat="47.15975" lon="5.54471">
        <ele>247</ele>
        <time>2018-04-16T07:23:16Z</time>
      </trkpt>
      <trkpt lat="47.15979" lon="5.54465">
        <ele>248</ele>
        <time>2018-04-16T07:23:20Z</time>
      </trkpt>
      <trkpt lat="47.15986" lon="5.54453">
        <ele>248</ele>
        <time>2018-04-16T07:23:26Z</time>
      </trkpt>
      <trkpt lat="47.15989" lon="5.54447">
        <ele>248</ele>
        <time>2018-04-16T07:23:29Z</time>
      </trkpt>
      <trkpt lat="47.15993" lon="5.54443">
        <ele>248</ele>
        <time>2018-04-16T07:23:34Z</time>
      </trkpt>
      <trkpt lat="47.15997" lon="5.54438">
        <ele>248</ele>
        <time>2018-04-16T07:23:37Z</time>
      </trkpt>
      <trkpt lat="47.16005" lon="5.54426">
        <ele>252</ele>
        <time>2018-04-16T07:23:46Z</time>
      </trkpt>
      <trkpt lat="47.1601" lon="5.54424">
        <ele>252</ele>
        <time>2018-04-16T07:23:51Z</time>
      </trkpt>
      <trkpt lat="47.16014" lon="5.5442">
        <ele>252</ele>
        <time>2018-04-16T07:23:56Z</time>
      </trkpt>
      <trkpt lat="47.16019" lon="5.54417">
        <ele>253</ele>
        <time>2018-04-16T07:24:00Z</time>
      </trkpt>
      <trkpt lat="47.16023" lon="5.54411">
        <ele>254</ele>
        <time>2018-04-16T07:24:04Z</time>
      </trkpt>
      <trkpt lat="47.16037" lon="5.544">
        <ele>255</ele>
        <time>2018-04-16T07:24:18Z</time>
      </trkpt>
      <trkpt lat="47.16042" lon="5.54398">
        <ele>255</ele>
        <time>2018-04-16T07:24:22Z</time>
      </trkpt>
      <trkpt lat="47.16049" lon="5.54393">
        <ele>256</ele>
        <time>2018-04-16T07:24:28Z</time>
      </trkpt>
      <trkpt lat="47.16059" lon="5.54389">
        <ele>257</ele>
        <time>2018-04-16T07:24:36Z</time>
      </trkpt>
      <trkpt lat="47.1608" lon="5.54372">
        <ele>258</ele>
        <time>2018-04-16T07:24:56Z</time>
      </trkpt>
      <trkpt lat="47.16083" lon="5.54363">
        <ele>258</ele>
        <time>2018-04-16T07:25:05Z</time>
      </trkpt>
      <trkpt lat="47.16092" lon="5.5436">
        <ele>265</ele>
        <time>2018-04-16T07:27:23Z</time>
      </trkpt>
      <trkpt lat="47.16093" lon="5.54352">
        <ele>265</ele>
        <time>2018-04-16T07:27:34Z</time>
      </trkpt>
      <trkpt lat="47.1609" lon="5.54344">
        <ele>264</ele>
        <time>2018-04-16T07:28:00Z</time>
      </trkpt>
      <trkpt lat="47.16095" lon="5.54342">
        <ele>264</ele>
        <time>2018-04-16T07:30:00Z</time>
      </trkpt>
      <trkpt lat="47.16106" lon="5.54334">
        <ele>265</ele>
        <time>2018-04-16T07:30:23Z</time>
      </trkpt>
      <trkpt lat="47.16107" lon="5.54327">
        <ele>268</ele>
        <time>2018-04-16T07:30:28Z</time>
      </trkpt>
      <trkpt lat="47.16109" lon="5.54319">
        <ele>268</ele>
        <time>2018-04-16T07:30:34Z</time>
      </trkpt>
      <trkpt lat="47.16112" lon="5.5429">
        <ele>270</ele>
        <time>2018-04-16T07:31:12Z</time>
      </trkpt>
      <trkpt lat="47.16111" lon="5.54283">
        <ele>270</ele>
        <time>2018-04-16T07:31:18Z</time>
      </trkpt>
      <trkpt lat="47.16114" lon="5.5427">
        <ele>270</ele>
        <time>2018-04-16T07:31:27Z</time>
      </trkpt>
      <trkpt lat="47.16116" lon="5.54262">
        <ele>270</ele>
        <time>2018-04-16T07:31:31Z</time>
      </trkpt>
      <trkpt lat="47.16117" lon="5.54256">
        <ele>270</ele>
        <time>2018-04-16T07:31:36Z</time>
      </trkpt>
      <trkpt lat="47.16117" lon="5.5424">
        <ele>273</ele>
        <time>2018-04-16T07:31:45Z</time>
      </trkpt>
      <trkpt lat="47.16119" lon="5.54234">
        <ele>273</ele>
        <time>2018-04-16T07:31:49Z</time>
      </trkpt>
      <trkpt lat="47.16119" lon="5.542">
        <ele>274</ele>
        <time>2018-04-16T07:32:19Z</time>
      </trkpt>
      <trkpt lat="47.16121" lon="5.54176">
        <ele>275</ele>
        <time>2018-04-16T07:32:47Z</time>
      </trkpt>
      <trkpt lat="47.16121" lon="5.54132">
        <ele>278</ele>
        <time>2018-04-16T07:33:18Z</time>
      </trkpt>
      <trkpt lat="47.16118" lon="5.54101">
        <ele>278</ele>
        <time>2018-04-16T07:33:40Z</time>
      </trkpt>
      <trkpt lat="47.16118" lon="5.54085">
        <ele>278</ele>
        <time>2018-04-16T07:33:49Z</time>
      </trkpt>
      <trkpt lat="47.16126" lon="5.54072">
        <ele>280</ele>
        <time>2018-04-16T07:34:02Z</time>
      </trkpt>
      <trkpt lat="47.1613" lon="5.54058">
        <ele>280</ele>
        <time>2018-04-16T07:34:16Z</time>
      </trkpt>
      <trkpt lat="47.1614" lon="5.54044">
        <ele>281</ele>
        <time>2018-04-16T07:34:30Z</time>
      </trkpt>
      <trkpt lat="47.16148" lon="5.54036">
        <ele>282</ele>
        <time>2018-04-16T07:34:38Z</time>
      </trkpt>
      <trkpt lat="47.1616" lon="5.54013">
        <ele>284</ele>
        <time>2018-04-16T07:34:53Z</time>
      </trkpt>
      <trkpt lat="47.16168" lon="5.54006">
        <ele>288</ele>
        <time>2018-04-16T07:35:03Z</time>
      </trkpt>
      <trkpt lat="47.16177" lon="5.53988">
        <ele>288</ele>
        <time>2018-04-16T07:35:18Z</time>
      </trkpt>
      <trkpt lat="47.16187" lon="5.53974">
        <ele>288</ele>
        <time>2018-04-16T07:35:31Z</time>
      </trkpt>
      <trkpt lat="47.16192" lon="5.53965">
        <ele>288</ele>
        <time>2018-04-16T07:35:39Z</time>
      </trkpt>
      <trkpt lat="47.16198" lon="5.53949">
        <ele>288</ele>
        <time>2018-04-16T07:35:49Z</time>
      </trkpt>
      <trkpt lat="47.16204" lon="5.53941">
        <ele>288</ele>
        <time>2018-04-16T07:35:56Z</time>
      </trkpt>
      <trkpt lat="47.16212" lon="5.53929">
        <ele>288</ele>
        <time>2018-04-16T07:36:04Z</time>
      </trkpt>
      <trkpt lat="47.16218" lon="5.5392">
        <ele>288</ele>
        <time>2018-04-16T07:36:14Z</time>
      </trkpt>
      <trkpt lat="47.16222" lon="5.53915">
        <ele>287</ele>
        <time>2018-04-16T07:36:24Z</time>
      </trkpt>
      <trkpt lat="47.16226" lon="5.53909">
        <ele>287</ele>
        <time>2018-04-16T07:36:30Z</time>
      </trkpt>
      <trkpt lat="47.16228" lon="5.53902">
        <ele>287</ele>
        <time>2018-04-16T07:36:34Z</time>
      </trkpt>
      <trkpt lat="47.16232" lon="5.53899">
        <ele>287</ele>
        <time>2018-04-16T07:36:38Z</time>
      </trkpt>
      <trkpt lat="47.16237" lon="5.53894">
        <ele>287</ele>
        <time>2018-04-16T07:36:47Z</time>
      </trkpt>
      <trkpt lat="47.16243" lon="5.53887">
        <ele>287</ele>
        <time>2018-04-16T07:37:02Z</time>
      </trkpt>
      <trkpt lat="47.16251" lon="5.53876">
        <ele>291</ele>
        <time>2018-04-16T07:37:16Z</time>
      </trkpt>
      <trkpt lat="47.16253" lon="5.5387">
        <ele>291</ele>
        <time>2018-04-16T07:37:21Z</time>
      </trkpt>
      <trkpt lat="47.16258" lon="5.53863">
        <ele>291</ele>
        <time>2018-04-16T07:37:28Z</time>
      </trkpt>
      <trkpt lat="47.16261" lon="5.53857">
        <ele>290</ele>
        <time>2018-04-16T07:37:32Z</time>
      </trkpt>
      <trkpt lat="47.16265" lon="5.53852">
        <ele>290</ele>
        <time>2018-04-16T07:37:35Z</time>
      </trkpt>
      <trkpt lat="47.16272" lon="5.53841">
        <ele>290</ele>
        <time>2018-04-16T07:37:42Z</time>
      </trkpt>
      <trkpt lat="47.16285" lon="5.53818">
        <ele>290</ele>
        <time>2018-04-16T07:38:07Z</time>
      </trkpt>
      <trkpt lat="47.16292" lon="5.53802">
        <ele>291</ele>
        <time>2018-04-16T07:38:31Z</time>
      </trkpt>
      <trkpt lat="47.16301" lon="5.53797">
        <ele>291</ele>
        <time>2018-04-16T07:38:40Z</time>
      </trkpt>
      <trkpt lat="47.16309" lon="5.53784">
        <ele>291</ele>
        <time>2018-04-16T07:38:57Z</time>
      </trkpt>
      <trkpt lat="47.1633" lon="5.53781">
        <ele>292</ele>
        <time>2018-04-16T07:39:19Z</time>
      </trkpt>
      <trkpt lat="47.16345" lon="5.53785">
        <ele>296</ele>
        <time>2018-04-16T07:39:36Z</time>
      </trkpt>
      <trkpt lat="47.16357" lon="5.53785">
        <ele>297</ele>
        <time>2018-04-16T07:39:53Z</time>
      </trkpt>
      <trkpt lat="47.16366" lon="5.53781">
        <ele>297</ele>
        <time>2018-04-16T07:40:01Z</time>
      </trkpt>
      <trkpt lat="47.16375" lon="5.53776">
        <ele>297</ele>
        <time>2018-04-16T07:40:11Z</time>
      </trkpt>
      <trkpt lat="47.16384" lon="5.5377">
        <ele>298</ele>
        <time>2018-04-16T07:40:19Z</time>
      </trkpt>
      <trkpt lat="47.16398" lon="5.53768">
        <ele>298</ele>
        <time>2018-04-16T07:40:35Z</time>
      </trkpt>
      <trkpt lat="47.16412" lon="5.53763">
        <ele>299</ele>
        <time>2018-04-16T07:40:51Z</time>
      </trkpt>
      <trkpt lat="47.16417" lon="5.53763">
        <ele>302</ele>
        <time>2018-04-16T07:40:59Z</time>
      </trkpt>
      <trkpt lat="47.16425" lon="5.53757">
        <ele>301</ele>
        <time>2018-04-16T07:41:10Z</time>
      </trkpt>
      <trkpt lat="47.1643" lon="5.53755">
        <ele>302</ele>
        <time>2018-04-16T07:41:18Z</time>
      </trkpt>
      <trkpt lat="47.16436" lon="5.53755">
        <ele>302</ele>
        <time>2018-04-16T07:41:30Z</time>
      </trkpt>
      <trkpt lat="47.16441" lon="5.53754">
        <ele>303</ele>
        <time>2018-04-16T07:41:48Z</time>
      </trkpt>
      <trkpt lat="47.16445" lon="5.53756">
        <ele>303</ele>
        <time>2018-04-16T07:42:00Z</time>
      </trkpt>
      <trkpt lat="47.1645" lon="5.53754">
        <ele>304</ele>
        <time>2018-04-16T07:42:02Z</time>
      </trkpt>
      <trkpt lat="47.16455" lon="5.53751">
        <ele>304</ele>
        <time>2018-04-16T07:42:45Z</time>
      </trkpt>
      <trkpt lat="47.16467" lon="5.53743">
        <ele>304</ele>
        <time>2018-04-16T07:43:00Z</time>
      </trkpt>
      <trkpt lat="47.16475" lon="5.53734">
        <ele>305</ele>
        <time>2018-04-16T07:43:09Z</time>
      </trkpt>
      <trkpt lat="47.1649" lon="5.53719">
        <ele>305</ele>
        <time>2018-04-16T07:43:28Z</time>
      </trkpt>
      <trkpt lat="47.16495" lon="5.53705">
        <ele>305</ele>
        <time>2018-04-16T07:43:50Z</time>
      </trkpt>
      <trkpt lat="47.16492" lon="5.53674">
        <ele>306</ele>
        <time>2018-04-16T07:44:23Z</time>
      </trkpt>
      <trkpt lat="47.16489" lon="5.53657">
        <ele>304</ele>
        <time>2018-04-16T07:44:32Z</time>
      </trkpt>
      <trkpt lat="47.16498" lon="5.53648">
        <ele>304</ele>
        <time>2018-04-16T07:44:48Z</time>
      </trkpt>
      <trkpt lat="47.16507" lon="5.53648">
        <ele>308</ele>
        <time>2018-04-16T07:45:24Z</time>
      </trkpt>
      <trkpt lat="47.16515" lon="5.53639">
        <ele>308</ele>
        <time>2018-04-16T07:45:33Z</time>
      </trkpt>
      <trkpt lat="47.16523" lon="5.53632">
        <ele>308</ele>
        <time>2018-04-16T07:45:41Z</time>
      </trkpt>
      <trkpt lat="47.16528" lon="5.53621">
        <ele>308</ele>
        <time>2018-04-16T07:45:50Z</time>
      </trkpt>
      <trkpt lat="47.16538" lon="5.53605">
        <ele>308</ele>
        <time>2018-04-16T07:46:07Z</time>
      </trkpt>
      <trkpt lat="47.16546" lon="5.53597">
        <ele>308</ele>
        <time>2018-04-16T07:46:15Z</time>
      </trkpt>
      <trkpt lat="47.16554" lon="5.53573">
        <ele>305</ele>
        <time>2018-04-16T07:46:33Z</time>
      </trkpt>
      <trkpt lat="47.16562" lon="5.53565">
        <ele>306</ele>
        <time>2018-04-16T07:46:40Z</time>
      </trkpt>
      <trkpt lat="47.16565" lon="5.53552">
        <ele>305</ele>
        <time>2018-04-16T07:46:50Z</time>
      </trkpt>
      <trkpt lat="47.16579" lon="5.53532">
        <ele>305</ele>
        <time>2018-04-16T07:47:07Z</time>
      </trkpt>
      <trkpt lat="47.16585" lon="5.53523">
        <ele>309</ele>
        <time>2018-04-16T07:47:21Z</time>
      </trkpt>
      <trkpt lat="47.1659" lon="5.53526">
        <ele>310</ele>
        <time>2018-04-16T07:47:27Z</time>
      </trkpt>
      <trkpt lat="47.16604" lon="5.53535">
        <ele>311</ele>
        <time>2018-04-16T07:47:47Z</time>
      </trkpt>
      <trkpt lat="47.16607" lon="5.53548">
        <ele>312</ele>
        <time>2018-04-16T07:47:56Z</time>
      </trkpt>
      <trkpt lat="47.16608" lon="5.53557">
        <ele>312</ele>
        <time>2018-04-16T07:48:04Z</time>
      </trkpt>
      <trkpt lat="47.16609" lon="5.53567">
        <ele>312</ele>
        <time>2018-04-16T07:48:16Z</time>
      </trkpt>
      <trkpt lat="47.16614" lon="5.53582">
        <ele>313</ele>
        <time>2018-04-16T07:48:30Z</time>
      </trkpt>
      <trkpt lat="47.16624" lon="5.53591">
        <ele>317</ele>
        <time>2018-04-16T07:48:49Z</time>
      </trkpt>
      <trkpt lat="47.1664" lon="5.53625">
        <ele>318</ele>
        <time>2018-04-16T07:49:29Z</time>
      </trkpt>
      <trkpt lat="47.16656" lon="5.53644">
        <ele>320</ele>
        <time>2018-04-16T07:49:50Z</time>
      </trkpt>
      <trkpt lat="47.16671" lon="5.53664">
        <ele>324</ele>
        <time>2018-04-16T07:50:22Z</time>
      </trkpt>
      <trkpt lat="47.1668" lon="5.5368">
        <ele>327</ele>
        <time>2018-04-16T07:50:38Z</time>
      </trkpt>
      <trkpt lat="47.1669" lon="5.5368">
        <ele>328</ele>
        <time>2018-04-16T07:51:10Z</time>
      </trkpt>
      <trkpt lat="47.16702" lon="5.53707">
        <ele>331</ele>
        <time>2018-04-16T07:53:37Z</time>
      </trkpt>
      <trkpt lat="47.16706" lon="5.5371">
        <ele>331</ele>
        <time>2018-04-16T07:53:42Z</time>
      </trkpt>
      <trkpt lat="47.16712" lon="5.53714">
        <ele>331</ele>
        <time>2018-04-16T07:53:48Z</time>
      </trkpt>
      <trkpt lat="47.16712" lon="5.53723">
        <ele>332</ele>
        <time>2018-04-16T07:53:59Z</time>
      </trkpt>
      <trkpt lat="47.16716" lon="5.53733">
        <ele>332</ele>
        <time>2018-04-16T07:54:11Z</time>
      </trkpt>
      <trkpt lat="47.16722" lon="5.53744">
        <ele>334</ele>
        <time>2018-04-16T07:54:23Z</time>
      </trkpt>
      <trkpt lat="47.16723" lon="5.53752">
        <ele>335</ele>
        <time>2018-04-16T07:54:28Z</time>
      </trkpt>
      <trkpt lat="47.16731" lon="5.53762">
        <ele>336</ele>
        <time>2018-04-16T07:54:41Z</time>
      </trkpt>
      <trkpt lat="47.16735" lon="5.53765">
        <ele>336</ele>
        <time>2018-04-16T07:54:46Z</time>
      </trkpt>
      <trkpt lat="47.16739" lon="5.5377">
        <ele>336</ele>
        <time>2018-04-16T07:54:54Z</time>
      </trkpt>
      <trkpt lat="47.16749" lon="5.53783">
        <ele>336</ele>
        <time>2018-04-16T07:55:08Z</time>
      </trkpt>
      <trkpt lat="47.16756" lon="5.53798">
        <ele>342</ele>
        <time>2018-04-16T07:55:21Z</time>
      </trkpt>
      <trkpt lat="47.16763" lon="5.53807">
        <ele>342</ele>
        <time>2018-04-16T07:55:30Z</time>
      </trkpt>
      <trkpt lat="47.16772" lon="5.53813">
        <ele>342</ele>
        <time>2018-04-16T07:55:38Z</time>
      </trkpt>
      <trkpt lat="47.16786" lon="5.53847">
        <ele>343</ele>
        <time>2018-04-16T07:56:03Z</time>
      </trkpt>
      <trkpt lat="47.16796" lon="5.53856">
        <ele>344</ele>
        <time>2018-04-16T07:56:13Z</time>
      </trkpt>
      <trkpt lat="47.16806" lon="5.53881">
        <ele>344</ele>
        <time>2018-04-16T07:56:32Z</time>
      </trkpt>
      <trkpt lat="47.16813" lon="5.5389">
        <ele>345</ele>
        <time>2018-04-16T07:56:40Z</time>
      </trkpt>
      <trkpt lat="47.16821" lon="5.53897">
        <ele>345</ele>
        <time>2018-04-16T07:56:50Z</time>
      </trkpt>
      <trkpt lat="47.16847" lon="5.53936">
        <ele>350</ele>
        <time>2018-04-16T07:57:23Z</time>
      </trkpt>
      <trkpt lat="47.16853" lon="5.53948">
        <ele>350</ele>
        <time>2018-04-16T07:57:31Z</time>
      </trkpt>
      <trkpt lat="47.16861" lon="5.53957">
        <ele>351</ele>
        <time>2018-04-16T07:57:43Z</time>
      </trkpt>
      <trkpt lat="47.16868" lon="5.53966">
        <ele>351</ele>
        <time>2018-04-16T07:57:52Z</time>
      </trkpt>
      <trkpt lat="47.16879" lon="5.53967">
        <ele>351</ele>
        <time>2018-04-16T07:58:02Z</time>
      </trkpt>
      <trkpt lat="47.16889" lon="5.53968">
        <ele>352</ele>
        <time>2018-04-16T07:58:09Z</time>
      </trkpt>
      <trkpt lat="47.16905" lon="5.5396">
        <ele>353</ele>
        <time>2018-04-16T07:58:25Z</time>
      </trkpt>
      <trkpt lat="47.16912" lon="5.5395">
        <ele>353</ele>
        <time>2018-04-16T07:58:32Z</time>
      </trkpt>
      <trkpt lat="47.16921" lon="5.53925">
        <ele>356</ele>
        <time>2018-04-16T07:58:51Z</time>
      </trkpt>
      <trkpt lat="47.16922" lon="5.53911">
        <ele>356</ele>
        <time>2018-04-16T07:59:01Z</time>
      </trkpt>
      <trkpt lat="47.16928" lon="5.53896">
        <ele>356</ele>
        <time>2018-04-16T07:59:10Z</time>
      </trkpt>
      <trkpt lat="47.16931" lon="5.53892">
        <ele>356</ele>
        <time>2018-04-16T07:59:13Z</time>
      </trkpt>
      <trkpt lat="47.16933" lon="5.53878">
        <ele>356</ele>
        <time>2018-04-16T07:59:22Z</time>
      </trkpt>
      <trkpt lat="47.16935" lon="5.53871">
        <ele>356</ele>
        <time>2018-04-16T07:59:27Z</time>
      </trkpt>
      <trkpt lat="47.16938" lon="5.53865">
        <ele>356</ele>
        <time>2018-04-16T07:59:32Z</time>
      </trkpt>
      <trkpt lat="47.16942" lon="5.53859">
        <ele>356</ele>
        <time>2018-04-16T07:59:37Z</time>
      </trkpt>
      <trkpt lat="47.16945" lon="5.53848">
        <ele>356</ele>
        <time>2018-04-16T07:59:46Z</time>
      </trkpt>
      <trkpt lat="47.16947" lon="5.53842">
        <ele>356</ele>
        <time>2018-04-16T07:59:50Z</time>
      </trkpt>
      <trkpt lat="47.16949" lon="5.53835">
        <ele>356</ele>
        <time>2018-04-16T07:59:54Z</time>
      </trkpt>
      <trkpt lat="47.1695" lon="5.53827">
        <ele>356</ele>
        <time>2018-04-16T07:59:59Z</time>
      </trkpt>
      <trkpt lat="47.16953" lon="5.53821">
        <ele>356</ele>
        <time>2018-04-16T08:00:03Z</time>
      </trkpt>
      <trkpt lat="47.16961" lon="5.53813">
        <ele>356</ele>
        <time>2018-04-16T08:00:10Z</time>
      </trkpt>
      <trkpt lat="47.1697" lon="5.53794">
        <ele>356</ele>
        <time>2018-04-16T08:00:24Z</time>
      </trkpt>
      <trkpt lat="47.16972" lon="5.5378">
        <ele>356</ele>
        <time>2018-04-16T08:00:32Z</time>
      </trkpt>
      <trkpt lat="47.16977" lon="5.53767">
        <ele>356</ele>
        <time>2018-04-16T08:00:40Z</time>
      </trkpt>
      <trkpt lat="47.16983" lon="5.53757">
        <ele>356</ele>
        <time>2018-04-16T08:00:48Z</time>
      </trkpt>
      <trkpt lat="47.16989" lon="5.53745">
        <ele>356</ele>
        <time>2018-04-16T08:00:57Z</time>
      </trkpt>
      <trkpt lat="47.16991" lon="5.53732">
        <ele>356</ele>
        <time>2018-04-16T08:01:06Z</time>
      </trkpt>
      <trkpt lat="47.16997" lon="5.53721">
        <ele>356</ele>
        <time>2018-04-16T08:01:14Z</time>
      </trkpt>
      <trkpt lat="47.17004" lon="5.53712">
        <ele>354</ele>
        <time>2018-04-16T08:01:21Z</time>
      </trkpt>
      <trkpt lat="47.17012" lon="5.53701">
        <ele>354</ele>
        <time>2018-04-16T08:01:29Z</time>
      </trkpt>
      <trkpt lat="47.17015" lon="5.53688">
        <ele>354</ele>
        <time>2018-04-16T08:01:37Z</time>
      </trkpt>
      <trkpt lat="47.17015" lon="5.53675">
        <ele>355</ele>
        <time>2018-04-16T08:01:45Z</time>
      </trkpt>
      <trkpt lat="47.17018" lon="5.53662">
        <ele>355</ele>
        <time>2018-04-16T08:01:53Z</time>
      </trkpt>
      <trkpt lat="47.17029" lon="5.53638">
        <ele>355</ele>
        <time>2018-04-16T08:02:11Z</time>
      </trkpt>
      <trkpt lat="47.17032" lon="5.53623">
        <ele>355</ele>
        <time>2018-04-16T08:02:20Z</time>
      </trkpt>
      <trkpt lat="47.17038" lon="5.53613">
        <ele>355</ele>
        <time>2018-04-16T08:02:27Z</time>
      </trkpt>
      <trkpt lat="47.17045" lon="5.53596">
        <ele>355</ele>
        <time>2018-04-16T08:02:41Z</time>
      </trkpt>
      <trkpt lat="47.17049" lon="5.53585">
        <ele>356</ele>
        <time>2018-04-16T08:02:49Z</time>
      </trkpt>
      <trkpt lat="47.17056" lon="5.5357">
        <ele>357</ele>
        <time>2018-04-16T08:03:02Z</time>
      </trkpt>
      <trkpt lat="47.17064" lon="5.53561">
        <ele>357</ele>
        <time>2018-04-16T08:03:10Z</time>
      </trkpt>
      <trkpt lat="47.17072" lon="5.53557">
        <ele>357</ele>
        <time>2018-04-16T08:03:19Z</time>
      </trkpt>
      <trkpt lat="47.17085" lon="5.53544">
        <ele>357</ele>
        <time>2018-04-16T08:03:34Z</time>
      </trkpt>
      <trkpt lat="47.17089" lon="5.53532">
        <ele>357</ele>
        <time>2018-04-16T08:03:42Z</time>
      </trkpt>
      <trkpt lat="47.17091" lon="5.53522">
        <ele>357</ele>
        <time>2018-04-16T08:04:34Z</time>
      </trkpt>
      <trkpt lat="47.17112" lon="5.53489">
        <ele>357</ele>
        <time>2018-04-16T08:11:19Z</time>
      </trkpt>
      <trkpt lat="47.17112" lon="5.53489">
        <ele>357</ele>
        <time>2018-04-16T08:11:19Z</time>
      </trkpt>
      <trkpt lat="47.1712" lon="5.53475">
        <ele>357</ele>
        <time>2018-04-16T08:11:34Z</time>
      </trkpt>
      <trkpt lat="47.17124" lon="5.53456">
        <ele>357</ele>
        <time>2018-04-16T08:11:48Z</time>
      </trkpt>
      <trkpt lat="47.1713" lon="5.53446">
        <ele>357</ele>
        <time>2018-04-16T08:11:56Z</time>
      </trkpt>
      <trkpt lat="47.1714" lon="5.53443">
        <ele>357</ele>
        <time>2018-04-16T08:12:02Z</time>
      </trkpt>
      <trkpt lat="47.17146" lon="5.53434">
        <ele>357</ele>
        <time>2018-04-16T08:12:11Z</time>
      </trkpt>
      <trkpt lat="47.17155" lon="5.53425">
        <ele>358</ele>
        <time>2018-04-16T08:12:19Z</time>
      </trkpt>
      <trkpt lat="47.17162" lon="5.53415">
        <ele>358</ele>
        <time>2018-04-16T08:12:26Z</time>
      </trkpt>
      <trkpt lat="47.17172" lon="5.53396">
        <ele>358</ele>
        <time>2018-04-16T08:12:43Z</time>
      </trkpt>
      <trkpt lat="47.1718" lon="5.53382">
        <ele>358</ele>
        <time>2018-04-16T08:12:56Z</time>
      </trkpt>
      <trkpt lat="47.17188" lon="5.53375">
        <ele>358</ele>
        <time>2018-04-16T08:13:03Z</time>
      </trkpt>
      <trkpt lat="47.17206" lon="5.53355">
        <ele>358</ele>
        <time>2018-04-16T08:13:25Z</time>
      </trkpt>
      <trkpt lat="47.17212" lon="5.53343">
        <ele>358</ele>
        <time>2018-04-16T08:13:33Z</time>
      </trkpt>
      <trkpt lat="47.17216" lon="5.53332">
        <ele>357</ele>
        <time>2018-04-16T08:13:43Z</time>
      </trkpt>
      <trkpt lat="47.17232" lon="5.53313">
        <ele>357</ele>
        <time>2018-04-16T08:14:00Z</time>
      </trkpt>
      <trkpt lat="47.17236" lon="5.533">
        <ele>357</ele>
        <time>2018-04-16T08:14:10Z</time>
      </trkpt>
      <trkpt lat="47.17243" lon="5.53288">
        <ele>357</ele>
        <time>2018-04-16T08:14:20Z</time>
      </trkpt>
      <trkpt lat="47.17254" lon="5.53269">
        <ele>359</ele>
        <time>2018-04-16T08:14:37Z</time>
      </trkpt>
      <trkpt lat="47.17265" lon="5.53258">
        <ele>359</ele>
        <time>2018-04-16T08:14:48Z</time>
      </trkpt>
      <trkpt lat="47.17276" lon="5.53238">
        <ele>358</ele>
        <time>2018-04-16T08:15:07Z</time>
      </trkpt>
      <trkpt lat="47.17283" lon="5.53229">
        <ele>357</ele>
        <time>2018-04-16T08:15:12Z</time>
      </trkpt>
      <trkpt lat="47.17288" lon="5.53217">
        <ele>357</ele>
        <time>2018-04-16T08:15:20Z</time>
      </trkpt>
      <trkpt lat="47.17299" lon="5.53212">
        <ele>357</ele>
        <time>2018-04-16T08:15:32Z</time>
      </trkpt>
      <trkpt lat="47.17308" lon="5.53213">
        <ele>357</ele>
        <time>2018-04-16T08:15:42Z</time>
      </trkpt>
      <trkpt lat="47.17318" lon="5.53211">
        <ele>358</ele>
        <time>2018-04-16T08:15:51Z</time>
      </trkpt>
      <trkpt lat="47.17327" lon="5.53217">
        <ele>358</ele>
        <time>2018-04-16T08:15:59Z</time>
      </trkpt>
      <trkpt lat="47.17334" lon="5.53224">
        <ele>360</ele>
        <time>2018-04-16T08:16:08Z</time>
      </trkpt>
      <trkpt lat="47.17347" lon="5.53229">
        <ele>360</ele>
        <time>2018-04-16T08:16:19Z</time>
      </trkpt>
      <trkpt lat="47.17356" lon="5.53229">
        <ele>360</ele>
        <time>2018-04-16T08:16:24Z</time>
      </trkpt>
      <trkpt lat="47.17366" lon="5.53229">
        <ele>361</ele>
        <time>2018-04-16T08:16:29Z</time>
      </trkpt>
      <trkpt lat="47.17374" lon="5.53233">
        <ele>361</ele>
        <time>2018-04-16T08:16:38Z</time>
      </trkpt>
      <trkpt lat="47.17384" lon="5.5324">
        <ele>361</ele>
        <time>2018-04-16T08:16:48Z</time>
      </trkpt>
      <trkpt lat="47.17393" lon="5.53237">
        <ele>362</ele>
        <time>2018-04-16T08:16:55Z</time>
      </trkpt>
      <trkpt lat="47.17402" lon="5.53237">
        <ele>362</ele>
        <time>2018-04-16T08:17:05Z</time>
      </trkpt>
      <trkpt lat="47.17423" lon="5.53234">
        <ele>363</ele>
        <time>2018-04-16T08:17:19Z</time>
      </trkpt>
      <trkpt lat="47.17431" lon="5.5323">
        <ele>363</ele>
        <time>2018-04-16T08:17:25Z</time>
      </trkpt>
      <trkpt lat="47.17439" lon="5.53223">
        <ele>363</ele>
        <time>2018-04-16T08:17:32Z</time>
      </trkpt>
      <trkpt lat="47.17458" lon="5.53213">
        <ele>363</ele>
        <time>2018-04-16T08:17:46Z</time>
      </trkpt>
      <trkpt lat="47.17467" lon="5.53206">
        <ele>363</ele>
        <time>2018-04-16T08:17:52Z</time>
      </trkpt>
      <trkpt lat="47.17476" lon="5.53197">
        <ele>363</ele>
        <time>2018-04-16T08:17:59Z</time>
      </trkpt>
      <trkpt lat="47.1748" lon="5.53186">
        <ele>363</ele>
        <time>2018-04-16T08:18:07Z</time>
      </trkpt>
      <trkpt lat="47.17477" lon="5.5317">
        <ele>363</ele>
        <time>2018-04-16T08:18:23Z</time>
      </trkpt>
      <trkpt lat="47.17489" lon="5.53162">
        <ele>361</ele>
        <time>2018-04-16T08:18:35Z</time>
      </trkpt>
      <trkpt lat="47.17494" lon="5.5315">
        <ele>361</ele>
        <time>2018-04-16T08:18:43Z</time>
      </trkpt>
      <trkpt lat="47.17494" lon="5.53136">
        <ele>360</ele>
        <time>2018-04-16T08:18:52Z</time>
      </trkpt>
      <trkpt lat="47.17497" lon="5.53122">
        <ele>359</ele>
        <time>2018-04-16T08:19:00Z</time>
      </trkpt>
      <trkpt lat="47.17503" lon="5.53092">
        <ele>359</ele>
        <time>2018-04-16T08:19:21Z</time>
      </trkpt>
      <trkpt lat="47.17509" lon="5.53083">
        <ele>358</ele>
        <time>2018-04-16T08:19:27Z</time>
      </trkpt>
      <trkpt lat="47.17499" lon="5.53084">
        <ele>359</ele>
        <time>2018-04-16T08:22:50Z</time>
      </trkpt>
      <trkpt lat="47.17489" lon="5.53091">
        <ele>358</ele>
        <time>2018-04-16T08:23:05Z</time>
      </trkpt>
      <trkpt lat="47.17479" lon="5.53094">
        <ele>358</ele>
        <time>2018-04-16T08:23:15Z</time>
      </trkpt>
      <trkpt lat="47.17468" lon="5.53112">
        <ele>358</ele>
        <time>2018-04-16T08:23:32Z</time>
      </trkpt>
      <trkpt lat="47.1746" lon="5.53119">
        <ele>358</ele>
        <time>2018-04-16T08:23:40Z</time>
      </trkpt>
      <trkpt lat="47.17452" lon="5.53126">
        <ele>358</ele>
        <time>2018-04-16T08:23:54Z</time>
      </trkpt>
      <trkpt lat="47.17447" lon="5.53112">
        <ele>357</ele>
        <time>2018-04-16T08:24:18Z</time>
      </trkpt>
      <trkpt lat="47.1743" lon="5.53115">
        <ele>356</ele>
        <time>2018-04-16T08:24:40Z</time>
      </trkpt>
      <trkpt lat="47.17422" lon="5.53112">
        <ele>356</ele>
        <time>2018-04-16T08:24:47Z</time>
      </trkpt>
      <trkpt lat="47.17413" lon="5.53107">
        <ele>352</ele>
        <time>2018-04-16T08:25:02Z</time>
      </trkpt>
      <trkpt lat="47.174" lon="5.53101">
        <ele>352</ele>
        <time>2018-04-16T08:25:18Z</time>
      </trkpt>
      <trkpt lat="47.17395" lon="5.53089">
        <ele>351</ele>
        <time>2018-04-16T08:25:34Z</time>
      </trkpt>
      <trkpt lat="47.17378" lon="5.5307">
        <ele>345</ele>
        <time>2018-04-16T08:25:56Z</time>
      </trkpt>
      <trkpt lat="47.17365" lon="5.53062">
        <ele>345</ele>
        <time>2018-04-16T08:26:09Z</time>
      </trkpt>
      <trkpt lat="47.17356" lon="5.53056">
        <ele>344</ele>
        <time>2018-04-16T08:26:22Z</time>
      </trkpt>
      <trkpt lat="47.17347" lon="5.5305">
        <ele>344</ele>
        <time>2018-04-16T08:26:28Z</time>
      </trkpt>
      <trkpt lat="47.17327" lon="5.53037">
        <ele>341</ele>
        <time>2018-04-16T08:26:54Z</time>
      </trkpt>
      <trkpt lat="47.17319" lon="5.53028">
        <ele>340</ele>
        <time>2018-04-16T08:27:03Z</time>
      </trkpt>
      <trkpt lat="47.17312" lon="5.53021">
        <ele>340</ele>
        <time>2018-04-16T08:27:09Z</time>
      </trkpt>
      <trkpt lat="47.17305" lon="5.53011">
        <ele>339</ele>
        <time>2018-04-16T08:27:18Z</time>
      </trkpt>
      <trkpt lat="47.17296" lon="5.53005">
        <ele>339</ele>
        <time>2018-04-16T08:27:27Z</time>
      </trkpt>
      <trkpt lat="47.1728" lon="5.52994">
        <ele>335</ele>
        <time>2018-04-16T08:27:47Z</time>
      </trkpt>
      <trkpt lat="47.17271" lon="5.52985">
        <ele>335</ele>
        <time>2018-04-16T08:28:13Z</time>
      </trkpt>
      <trkpt lat="47.17267" lon="5.52972">
        <ele>335</ele>
        <time>2018-04-16T08:28:49Z</time>
      </trkpt>
      <trkpt lat="47.17256" lon="5.52976">
        <ele>335</ele>
        <time>2018-04-16T08:29:07Z</time>
      </trkpt>
      <trkpt lat="47.17247" lon="5.52972">
        <ele>332</ele>
        <time>2018-04-16T08:29:21Z</time>
      </trkpt>
      <trkpt lat="47.17236" lon="5.52961">
        <ele>331</ele>
        <time>2018-04-16T08:29:35Z</time>
      </trkpt>
      <trkpt lat="47.17221" lon="5.52954">
        <ele>330</ele>
        <time>2018-04-16T08:29:48Z</time>
      </trkpt>
      <trkpt lat="47.17211" lon="5.52953">
        <ele>330</ele>
        <time>2018-04-16T08:29:56Z</time>
      </trkpt>
      <trkpt lat="47.17202" lon="5.52947">
        <ele>329</ele>
        <time>2018-04-16T08:30:05Z</time>
      </trkpt>
      <trkpt lat="47.17195" lon="5.52936">
        <ele>328</ele>
        <time>2018-04-16T08:30:12Z</time>
      </trkpt>
      <trkpt lat="47.17186" lon="5.5293">
        <ele>327</ele>
        <time>2018-04-16T08:30:19Z</time>
      </trkpt>
      <trkpt lat="47.17179" lon="5.52941">
        <ele>328</ele>
        <time>2018-04-16T08:30:30Z</time>
      </trkpt>
      <trkpt lat="47.17169" lon="5.52947">
        <ele>328</ele>
        <time>2018-04-16T08:30:43Z</time>
      </trkpt>
      <trkpt lat="47.17164" lon="5.52933">
        <ele>325</ele>
        <time>2018-04-16T08:30:53Z</time>
      </trkpt>
      <trkpt lat="47.17157" lon="5.52924">
        <ele>324</ele>
        <time>2018-04-16T08:31:01Z</time>
      </trkpt>
      <trkpt lat="47.17147" lon="5.52899">
        <ele>321</ele>
        <time>2018-04-16T08:31:18Z</time>
      </trkpt>
      <trkpt lat="47.17126" lon="5.52896">
        <ele>321</ele>
        <time>2018-04-16T08:31:38Z</time>
      </trkpt>
      <trkpt lat="47.17114" lon="5.52901">
        <ele>321</ele>
        <time>2018-04-16T08:31:54Z</time>
      </trkpt>
      <trkpt lat="47.17108" lon="5.52885">
        <ele>320</ele>
        <time>2018-04-16T08:32:15Z</time>
      </trkpt>
      <trkpt lat="47.17098" lon="5.52885">
        <ele>320</ele>
        <time>2018-04-16T08:32:23Z</time>
      </trkpt>
      <trkpt lat="47.1709" lon="5.52879">
        <ele>320</ele>
        <time>2018-04-16T08:32:30Z</time>
      </trkpt>
      <trkpt lat="47.17057" lon="5.52856">
        <ele>316</ele>
        <time>2018-04-16T08:33:05Z</time>
      </trkpt>
      <trkpt lat="47.17048" lon="5.52854">
        <ele>315</ele>
        <time>2018-04-16T08:33:13Z</time>
      </trkpt>
      <trkpt lat="47.17038" lon="5.52856">
        <ele>315</ele>
        <time>2018-04-16T08:33:20Z</time>
      </trkpt>
      <trkpt lat="47.17028" lon="5.52847">
        <ele>314</ele>
        <time>2018-04-16T08:33:34Z</time>
      </trkpt>
      <trkpt lat="47.17019" lon="5.52842">
        <ele>312</ele>
        <time>2018-04-16T08:33:41Z</time>
      </trkpt>
      <trkpt lat="47.17009" lon="5.52844">
        <ele>311</ele>
        <time>2018-04-16T08:33:49Z</time>
      </trkpt>
      <trkpt lat="47.17" lon="5.52843">
        <ele>309</ele>
        <time>2018-04-16T08:33:58Z</time>
      </trkpt>
      <trkpt lat="47.16991" lon="5.52837">
        <ele>309</ele>
        <time>2018-04-16T08:34:07Z</time>
      </trkpt>
      <trkpt lat="47.16982" lon="5.52832">
        <ele>307</ele>
        <time>2018-04-16T08:34:17Z</time>
      </trkpt>
      <trkpt lat="47.16973" lon="5.5283">
        <ele>307</ele>
        <time>2018-04-16T08:34:23Z</time>
      </trkpt>
      <trkpt lat="47.16962" lon="5.52827">
        <ele>307</ele>
        <time>2018-04-16T08:34:32Z</time>
      </trkpt>
      <trkpt lat="47.16955" lon="5.52835">
        <ele>310</ele>
        <time>2018-04-16T08:34:40Z</time>
      </trkpt>
      <trkpt lat="47.16944" lon="5.5283">
        <ele>306</ele>
        <time>2018-04-16T08:34:52Z</time>
      </trkpt>
      <trkpt lat="47.16933" lon="5.52836">
        <ele>309</ele>
        <time>2018-04-16T08:35:04Z</time>
      </trkpt>
      <trkpt lat="47.16915" lon="5.52827">
        <ele>305</ele>
        <time>2018-04-16T08:35:18Z</time>
      </trkpt>
      <trkpt lat="47.16907" lon="5.52823">
        <ele>303</ele>
        <time>2018-04-16T08:35:27Z</time>
      </trkpt>
      <trkpt lat="47.16897" lon="5.52818">
        <ele>302</ele>
        <time>2018-04-16T08:35:35Z</time>
      </trkpt>
      <trkpt lat="47.16888" lon="5.52816">
        <ele>301</ele>
        <time>2018-04-16T08:35:44Z</time>
      </trkpt>
      <trkpt lat="47.16879" lon="5.5281">
        <ele>301</ele>
        <time>2018-04-16T08:35:57Z</time>
      </trkpt>
      <trkpt lat="47.16869" lon="5.52807">
        <ele>300</ele>
        <time>2018-04-16T08:36:07Z</time>
      </trkpt>
      <trkpt lat="47.1686" lon="5.52809">
        <ele>300</ele>
        <time>2018-04-16T08:36:14Z</time>
      </trkpt>
      <trkpt lat="47.1684" lon="5.52813">
        <ele>299</ele>
        <time>2018-04-16T08:36:28Z</time>
      </trkpt>
      <trkpt lat="47.16821" lon="5.5281">
        <ele>296</ele>
        <time>2018-04-16T08:36:46Z</time>
      </trkpt>
      <trkpt lat="47.16812" lon="5.52805">
        <ele>296</ele>
        <time>2018-04-16T08:36:54Z</time>
      </trkpt>
      <trkpt lat="47.16802" lon="5.52803">
        <ele>296</ele>
        <time>2018-04-16T08:37:03Z</time>
      </trkpt>
      <trkpt lat="47.16783" lon="5.52791">
        <ele>295</ele>
        <time>2018-04-16T08:37:20Z</time>
      </trkpt>
      <trkpt lat="47.16774" lon="5.52794">
        <ele>295</ele>
        <time>2018-04-16T08:37:29Z</time>
      </trkpt>
      <trkpt lat="47.16764" lon="5.52792">
        <ele>295</ele>
        <time>2018-04-16T08:37:38Z</time>
      </trkpt>
      <trkpt lat="47.16754" lon="5.52789">
        <ele>294</ele>
        <time>2018-04-16T08:37:47Z</time>
      </trkpt>
      <trkpt lat="47.16743" lon="5.52781">
        <ele>290</ele>
        <time>2018-04-16T08:37:56Z</time>
      </trkpt>
      <trkpt lat="47.16731" lon="5.52784">
        <ele>290</ele>
        <time>2018-04-16T08:38:06Z</time>
      </trkpt>
      <trkpt lat="47.16723" lon="5.52781">
        <ele>289</ele>
        <time>2018-04-16T08:38:15Z</time>
      </trkpt>
      <trkpt lat="47.16713" lon="5.5278">
        <ele>289</ele>
        <time>2018-04-16T08:38:25Z</time>
      </trkpt>
      <trkpt lat="47.16704" lon="5.52774">
        <ele>288</ele>
        <time>2018-04-16T08:38:31Z</time>
      </trkpt>
      <trkpt lat="47.16694" lon="5.52773">
        <ele>288</ele>
        <time>2018-04-16T08:38:38Z</time>
      </trkpt>
      <trkpt lat="47.16684" lon="5.52773">
        <ele>287</ele>
        <time>2018-04-16T08:38:46Z</time>
      </trkpt>
      <trkpt lat="47.16666" lon="5.52784">
        <ele>282</ele>
        <time>2018-04-16T08:39:03Z</time>
      </trkpt>
      <trkpt lat="47.16649" lon="5.52816">
        <ele>282</ele>
        <time>2018-04-16T08:39:29Z</time>
      </trkpt>
      <trkpt lat="47.16624" lon="5.52828">
        <ele>280</ele>
        <time>2018-04-16T08:39:57Z</time>
      </trkpt>
      <trkpt lat="47.16616" lon="5.52843">
        <ele>278</ele>
        <time>2018-04-16T08:40:18Z</time>
      </trkpt>
      <trkpt lat="47.16598" lon="5.52849">
        <ele>277</ele>
        <time>2018-04-16T08:40:39Z</time>
      </trkpt>
      <trkpt lat="47.16583" lon="5.52867">
        <ele>277</ele>
        <time>2018-04-16T08:40:56Z</time>
      </trkpt>
      <trkpt lat="47.16576" lon="5.52875">
        <ele>273</ele>
        <time>2018-04-16T08:41:02Z</time>
      </trkpt>
      <trkpt lat="47.1657" lon="5.52885">
        <ele>273</ele>
        <time>2018-04-16T08:41:10Z</time>
      </trkpt>
      <trkpt lat="47.16552" lon="5.52899">
        <ele>273</ele>
        <time>2018-04-16T08:41:28Z</time>
      </trkpt>
      <trkpt lat="47.16543" lon="5.529">
        <ele>273</ele>
        <time>2018-04-16T08:41:35Z</time>
      </trkpt>
      <trkpt lat="47.16535" lon="5.52905">
        <ele>273</ele>
        <time>2018-04-16T08:41:44Z</time>
      </trkpt>
      <trkpt lat="47.16524" lon="5.52894">
        <ele>272</ele>
        <time>2018-04-16T08:41:57Z</time>
      </trkpt>
      <trkpt lat="47.16515" lon="5.52894">
        <ele>272</ele>
        <time>2018-04-16T08:42:04Z</time>
      </trkpt>
      <trkpt lat="47.16508" lon="5.52904">
        <ele>272</ele>
        <time>2018-04-16T08:42:13Z</time>
      </trkpt>
      <trkpt lat="47.16489" lon="5.52905">
        <ele>272</ele>
        <time>2018-04-16T08:42:30Z</time>
      </trkpt>
      <trkpt lat="47.1648" lon="5.52899">
        <ele>272</ele>
        <time>2018-04-16T08:42:38Z</time>
      </trkpt>
      <trkpt lat="47.16471" lon="5.52908">
        <ele>272</ele>
        <time>2018-04-16T08:42:48Z</time>
      </trkpt>
      <trkpt lat="47.16466" lon="5.52917">
        <ele>273</ele>
        <time>2018-04-16T08:42:55Z</time>
      </trkpt>
      <trkpt lat="47.16456" lon="5.5292">
        <ele>272</ele>
        <time>2018-04-16T08:43:03Z</time>
      </trkpt>
      <trkpt lat="47.16446" lon="5.52915">
        <ele>271</ele>
        <time>2018-04-16T08:43:21Z</time>
      </trkpt>
      <trkpt lat="47.16436" lon="5.52921">
        <ele>271</ele>
        <time>2018-04-16T08:43:31Z</time>
      </trkpt>
      <trkpt lat="47.16416" lon="5.52952">
        <ele>271</ele>
        <time>2018-04-16T08:43:54Z</time>
      </trkpt>
      <trkpt lat="47.16407" lon="5.52958">
        <ele>271</ele>
        <time>2018-04-16T08:44:05Z</time>
      </trkpt>
      <trkpt lat="47.16398" lon="5.52975">
        <ele>271</ele>
        <time>2018-04-16T08:44:22Z</time>
      </trkpt>
      <trkpt lat="47.1638" lon="5.52991">
        <ele>271</ele>
        <time>2018-04-16T08:44:34Z</time>
      </trkpt>
      <trkpt lat="47.16373" lon="5.53">
        <ele>271</ele>
        <time>2018-04-16T08:44:42Z</time>
      </trkpt>
      <trkpt lat="47.16365" lon="5.53008">
        <ele>271</ele>
        <time>2018-04-16T08:44:50Z</time>
      </trkpt>
      <trkpt lat="47.16361" lon="5.53019">
        <ele>271</ele>
        <time>2018-04-16T08:44:57Z</time>
      </trkpt>
      <trkpt lat="47.1635" lon="5.53027">
        <ele>271</ele>
        <time>2018-04-16T08:45:09Z</time>
      </trkpt>
      <trkpt lat="47.16344" lon="5.53035">
        <ele>271</ele>
        <time>2018-04-16T08:45:17Z</time>
      </trkpt>
      <trkpt lat="47.16335" lon="5.53041">
        <ele>271</ele>
        <time>2018-04-16T08:45:25Z</time>
      </trkpt>
      <trkpt lat="47.16325" lon="5.53046">
        <ele>269</ele>
        <time>2018-04-16T08:45:34Z</time>
      </trkpt>
      <trkpt lat="47.16318" lon="5.53056">
        <ele>269</ele>
        <time>2018-04-16T08:45:41Z</time>
      </trkpt>
      <trkpt lat="47.16311" lon="5.53064">
        <ele>269</ele>
        <time>2018-04-16T08:45:50Z</time>
      </trkpt>
      <trkpt lat="47.16303" lon="5.53068">
        <ele>269</ele>
        <time>2018-04-16T08:46:00Z</time>
      </trkpt>
      <trkpt lat="47.16282" lon="5.53067">
        <ele>269</ele>
        <time>2018-04-16T08:46:21Z</time>
      </trkpt>
      <trkpt lat="47.16277" lon="5.53085">
        <ele>268</ele>
        <time>2018-04-16T08:46:39Z</time>
      </trkpt>
      <trkpt lat="47.1627" lon="5.53102">
        <ele>268</ele>
        <time>2018-04-16T08:46:55Z</time>
      </trkpt>
      <trkpt lat="47.16255" lon="5.5311">
        <ele>268</ele>
        <time>2018-04-16T08:47:14Z</time>
      </trkpt>
      <trkpt lat="47.16252" lon="5.53123">
        <ele>268</ele>
        <time>2018-04-16T08:47:22Z</time>
      </trkpt>
      <trkpt lat="47.16253" lon="5.53137">
        <ele>268</ele>
        <time>2018-04-16T08:47:27Z</time>
      </trkpt>
      <trkpt lat="47.1625" lon="5.53152">
        <ele>267</ele>
        <time>2018-04-16T08:47:30Z</time>
      </trkpt>
      <trkpt lat="47.1624" lon="5.53163">
        <ele>266</ele>
        <time>2018-04-16T08:47:42Z</time>
      </trkpt>
      <trkpt lat="47.16236" lon="5.53176">
        <ele>264</ele>
        <time>2018-04-16T08:47:49Z</time>
      </trkpt>
      <trkpt lat="47.16235" lon="5.53191">
        <ele>264</ele>
        <time>2018-04-16T08:48:02Z</time>
      </trkpt>
      <trkpt lat="47.1622" lon="5.532">
        <ele>264</ele>
        <time>2018-04-16T08:48:24Z</time>
      </trkpt>
      <trkpt lat="47.16209" lon="5.53197">
        <ele>263</ele>
        <time>2018-04-16T08:48:36Z</time>
      </trkpt>
      <trkpt lat="47.16201" lon="5.53204">
        <ele>263</ele>
        <time>2018-04-16T08:48:46Z</time>
      </trkpt>
      <trkpt lat="47.16188" lon="5.53211">
        <ele>263</ele>
        <time>2018-04-16T08:49:10Z</time>
      </trkpt>
      <trkpt lat="47.16176" lon="5.53206">
        <ele>262</ele>
        <time>2018-04-16T08:49:21Z</time>
      </trkpt>
      <trkpt lat="47.16169" lon="5.5322">
        <ele>262</ele>
        <time>2018-04-16T08:49:40Z</time>
      </trkpt>
      <trkpt lat="47.1616" lon="5.53231">
        <ele>259</ele>
        <time>2018-04-16T08:49:56Z</time>
      </trkpt>
      <trkpt lat="47.1615" lon="5.53257">
        <ele>257</ele>
        <time>2018-04-16T08:50:16Z</time>
      </trkpt>
      <trkpt lat="47.16141" lon="5.53261">
        <ele>257</ele>
        <time>2018-04-16T08:50:21Z</time>
      </trkpt>
      <trkpt lat="47.16133" lon="5.53266">
        <ele>256</ele>
        <time>2018-04-16T08:50:31Z</time>
      </trkpt>
      <trkpt lat="47.16119" lon="5.53288">
        <ele>256</ele>
        <time>2018-04-16T08:50:52Z</time>
      </trkpt>
      <trkpt lat="47.16097" lon="5.53305">
        <ele>254</ele>
        <time>2018-04-16T08:51:15Z</time>
      </trkpt>
      <trkpt lat="47.16088" lon="5.53307">
        <ele>254</ele>
        <time>2018-04-16T08:51:22Z</time>
      </trkpt>
      <trkpt lat="47.1608" lon="5.53305">
        <ele>250</ele>
        <time>2018-04-16T08:51:29Z</time>
      </trkpt>
      <trkpt lat="47.16072" lon="5.53315">
        <ele>250</ele>
        <time>2018-04-16T08:51:40Z</time>
      </trkpt>
      <trkpt lat="47.1605" lon="5.53319">
        <ele>249</ele>
        <time>2018-04-16T08:52:00Z</time>
      </trkpt>
      <trkpt lat="47.16041" lon="5.53322">
        <ele>248</ele>
        <time>2018-04-16T08:52:07Z</time>
      </trkpt>
      <trkpt lat="47.16031" lon="5.5332">
        <ele>248</ele>
        <time>2018-04-16T08:52:13Z</time>
      </trkpt>
      <trkpt lat="47.16023" lon="5.53328">
        <ele>247</ele>
        <time>2018-04-16T08:52:20Z</time>
      </trkpt>
      <trkpt lat="47.16014" lon="5.53335">
        <ele>247</ele>
        <time>2018-04-16T08:52:26Z</time>
      </trkpt>
      <trkpt lat="47.16005" lon="5.53339">
        <ele>246</ele>
        <time>2018-04-16T08:52:33Z</time>
      </trkpt>
      <trkpt lat="47.15997" lon="5.53345">
        <ele>245</ele>
        <time>2018-04-16T08:52:43Z</time>
      </trkpt>
      <trkpt lat="47.15988" lon="5.53347">
        <ele>245</ele>
        <time>2018-04-16T08:52:53Z</time>
      </trkpt>
      <trkpt lat="47.15978" lon="5.5335">
        <ele>245</ele>
        <time>2018-04-16T08:53:01Z</time>
      </trkpt>
      <trkpt lat="47.15962" lon="5.53366">
        <ele>245</ele>
        <time>2018-04-16T08:53:21Z</time>
      </trkpt>
      <trkpt lat="47.15953" lon="5.53374">
        <ele>245</ele>
        <time>2018-04-16T08:53:32Z</time>
      </trkpt>
      <trkpt lat="47.15949" lon="5.53398">
        <ele>245</ele>
        <time>2018-04-16T08:53:49Z</time>
      </trkpt>
      <trkpt lat="47.15945" lon="5.5341">
        <ele>245</ele>
        <time>2018-04-16T08:53:58Z</time>
      </trkpt>
      <trkpt lat="47.15931" lon="5.53449">
        <ele>247</ele>
        <time>2018-04-16T08:54:22Z</time>
      </trkpt>
      <trkpt lat="47.15918" lon="5.5347">
        <ele>247</ele>
        <time>2018-04-16T08:54:37Z</time>
      </trkpt>
      <trkpt lat="47.15912" lon="5.5348">
        <ele>245</ele>
        <time>2018-04-16T08:54:44Z</time>
      </trkpt>
      <trkpt lat="47.15908" lon="5.53493">
        <ele>245</ele>
        <time>2018-04-16T08:54:51Z</time>
      </trkpt>
      <trkpt lat="47.15902" lon="5.53503">
        <ele>245</ele>
        <time>2018-04-16T08:54:57Z</time>
      </trkpt>
      <trkpt lat="47.15895" lon="5.53516">
        <ele>246</ele>
        <time>2018-04-16T08:55:04Z</time>
      </trkpt>
      <trkpt lat="47.15887" lon="5.53523">
        <ele>246</ele>
        <time>2018-04-16T08:55:11Z</time>
      </trkpt>
      <trkpt lat="47.15872" lon="5.53531">
        <ele>246</ele>
        <time>2018-04-16T08:55:28Z</time>
      </trkpt>
      <trkpt lat="47.15863" lon="5.53536">
        <ele>246</ele>
        <time>2018-04-16T08:55:37Z</time>
      </trkpt>
      <trkpt lat="47.15856" lon="5.53546">
        <ele>245</ele>
        <time>2018-04-16T08:55:47Z</time>
      </trkpt>
      <trkpt lat="47.15841" lon="5.53568">
        <ele>243</ele>
        <time>2018-04-16T08:56:07Z</time>
      </trkpt>
      <trkpt lat="47.15831" lon="5.53592">
        <ele>240</ele>
        <time>2018-04-16T08:56:20Z</time>
      </trkpt>
      <trkpt lat="47.15829" lon="5.53605">
        <ele>240</ele>
        <time>2018-04-16T08:56:29Z</time>
      </trkpt>
      <trkpt lat="47.15829" lon="5.53619">
        <ele>241</ele>
        <time>2018-04-16T08:56:51Z</time>
      </trkpt>
      <trkpt lat="47.15833" lon="5.53631">
        <ele>240</ele>
        <time>2018-04-16T08:57:00Z</time>
      </trkpt>
      <trkpt lat="47.15839" lon="5.53642">
        <ele>244</ele>
        <time>2018-04-16T08:57:20Z</time>
      </trkpt>
      <trkpt lat="47.15851" lon="5.53654">
        <ele>245</ele>
        <time>2018-04-16T08:57:36Z</time>
      </trkpt>
      <trkpt lat="47.15855" lon="5.53666">
        <ele>245</ele>
        <time>2018-04-16T08:57:46Z</time>
      </trkpt>
      <trkpt lat="47.1586" lon="5.53678">
        <ele>246</ele>
        <time>2018-04-16T08:57:58Z</time>
      </trkpt>
      <trkpt lat="47.1586" lon="5.53691">
        <ele>247</ele>
        <time>2018-04-16T08:58:07Z</time>
      </trkpt>
      <trkpt lat="47.15863" lon="5.53707">
        <ele>247</ele>
        <time>2018-04-16T08:58:19Z</time>
      </trkpt>
      <trkpt lat="47.15865" lon="5.53723">
        <ele>248</ele>
        <time>2018-04-16T08:58:34Z</time>
      </trkpt>
      <trkpt lat="47.15854" lon="5.53742">
        <ele>246</ele>
        <time>2018-04-16T08:58:53Z</time>
      </trkpt>
      <trkpt lat="47.15852" lon="5.53755">
        <ele>246</ele>
        <time>2018-04-16T08:59:07Z</time>
      </trkpt>
      <trkpt lat="47.15848" lon="5.53772">
        <ele>247</ele>
        <time>2018-04-16T08:59:17Z</time>
      </trkpt>
      <trkpt lat="47.15844" lon="5.53782">
        <ele>247</ele>
        <time>2018-04-16T08:59:22Z</time>
      </trkpt>
      <trkpt lat="47.15842" lon="5.53796">
        <ele>247</ele>
        <time>2018-04-16T08:59:30Z</time>
      </trkpt>
      <trkpt lat="47.15837" lon="5.53808">
        <ele>247</ele>
        <time>2018-04-16T08:59:39Z</time>
      </trkpt>
      <trkpt lat="47.15833" lon="5.5382">
        <ele>245</ele>
        <time>2018-04-16T08:59:48Z</time>
      </trkpt>
      <trkpt lat="47.1583" lon="5.53842">
        <ele>245</ele>
        <time>2018-04-16T09:00:11Z</time>
      </trkpt>
      <trkpt lat="47.15826" lon="5.53856">
        <ele>244</ele>
        <time>2018-04-16T09:00:20Z</time>
      </trkpt>
      <trkpt lat="47.15823" lon="5.53869">
        <ele>244</ele>
        <time>2018-04-16T09:00:26Z</time>
      </trkpt>
      <trkpt lat="47.15819" lon="5.53881">
        <ele>243</ele>
        <time>2018-04-16T09:00:35Z</time>
      </trkpt>
      <trkpt lat="47.158" lon="5.53921">
        <ele>243</ele>
        <time>2018-04-16T09:01:07Z</time>
      </trkpt>
      <trkpt lat="47.15792" lon="5.53932">
        <ele>242</ele>
        <time>2018-04-16T09:01:15Z</time>
      </trkpt>
      <trkpt lat="47.15778" lon="5.53951">
        <ele>242</ele>
        <time>2018-04-16T09:01:33Z</time>
      </trkpt>
      <trkpt lat="47.15772" lon="5.53974">
        <ele>242</ele>
        <time>2018-04-16T09:01:51Z</time>
      </trkpt>
      <trkpt lat="47.15769" lon="5.53986">
        <ele>242</ele>
        <time>2018-04-16T09:02:35Z</time>
      </trkpt>
      <trkpt lat="47.15769" lon="5.54014">
        <ele>242</ele>
        <time>2018-04-16T09:03:09Z</time>
      </trkpt>
      <trkpt lat="47.15772" lon="5.54025">
        <ele>242</ele>
        <time>2018-04-16T09:03:15Z</time>
      </trkpt>
      <trkpt lat="47.15773" lon="5.54043">
        <ele>242</ele>
        <time>2018-04-16T09:03:25Z</time>
      </trkpt>
      <trkpt lat="47.15775" lon="5.54057">
        <ele>242</ele>
        <time>2018-04-16T09:03:34Z</time>
      </trkpt>
      <trkpt lat="47.15772" lon="5.54085">
        <ele>242</ele>
        <time>2018-04-16T09:03:50Z</time>
      </trkpt>
      <trkpt lat="47.1577" lon="5.54098">
        <ele>242</ele>
        <time>2018-04-16T09:03:59Z</time>
      </trkpt>
      <trkpt lat="47.15773" lon="5.54114">
        <ele>242</ele>
        <time>2018-04-16T09:04:27Z</time>
      </trkpt>
      <trkpt lat="47.15764" lon="5.54122">
        <ele>242</ele>
        <time>2018-04-16T09:04:36Z</time>
      </trkpt>
      <trkpt lat="47.15749" lon="5.5414">
        <ele>242</ele>
        <time>2018-04-16T09:04:56Z</time>
      </trkpt>
      <trkpt lat="47.15735" lon="5.54151">
        <ele>242</ele>
        <time>2018-04-16T09:05:14Z</time>
      </trkpt>
      <trkpt lat="47.15718" lon="5.54159">
        <ele>241</ele>
        <time>2018-04-16T09:05:34Z</time>
      </trkpt>
      <trkpt lat="47.15708" lon="5.54178">
        <ele>243</ele>
        <time>2018-04-16T09:05:50Z</time>
      </trkpt>
      <trkpt lat="47.15701" lon="5.54186">
        <ele>242</ele>
        <time>2018-04-16T09:05:59Z</time>
      </trkpt>
      <trkpt lat="47.15694" lon="5.54197">
        <ele>242</ele>
        <time>2018-04-16T09:06:24Z</time>
      </trkpt>
      <trkpt lat="47.15686" lon="5.54206">
        <ele>242</ele>
        <time>2018-04-16T09:06:34Z</time>
      </trkpt>
      <trkpt lat="47.15669" lon="5.54214">
        <ele>242</ele>
        <time>2018-04-16T09:06:47Z</time>
      </trkpt>
      <trkpt lat="47.15661" lon="5.5424">
        <ele>240</ele>
        <time>2018-04-16T09:07:04Z</time>
      </trkpt>
      <trkpt lat="47.15655" lon="5.54248">
        <ele>240</ele>
        <time>2018-04-16T09:07:21Z</time>
      </trkpt>
      <trkpt lat="47.1565" lon="5.5426">
        <ele>241</ele>
        <time>2018-04-16T09:07:31Z</time>
      </trkpt>
      <trkpt lat="47.1564" lon="5.5427">
        <ele>240</ele>
        <time>2018-04-16T09:07:42Z</time>
      </trkpt>
      <trkpt lat="47.15634" lon="5.54281">
        <ele>240</ele>
        <time>2018-04-16T09:07:52Z</time>
      </trkpt>
      <trkpt lat="47.15627" lon="5.54291">
        <ele>240</ele>
        <time>2018-04-16T09:07:59Z</time>
      </trkpt>
      <trkpt lat="47.15587" lon="5.54314">
        <ele>240</ele>
        <time>2018-04-16T09:08:41Z</time>
      </trkpt>
      <trkpt lat="47.15578" lon="5.54321">
        <ele>238</ele>
        <time>2018-04-16T09:08:51Z</time>
      </trkpt>
      <trkpt lat="47.15551" lon="5.5434">
        <ele>238</ele>
        <time>2018-04-16T09:09:17Z</time>
      </trkpt>
      <trkpt lat="47.15543" lon="5.54349">
        <ele>238</ele>
        <time>2018-04-16T09:09:23Z</time>
      </trkpt>
      <trkpt lat="47.15521" lon="5.5436">
        <ele>237</ele>
        <time>2018-04-16T09:09:52Z</time>
      </trkpt>
      <trkpt lat="47.15513" lon="5.54367">
        <ele>237</ele>
        <time>2018-04-16T09:10:01Z</time>
      </trkpt>
      <trkpt lat="47.15501" lon="5.54385">
        <ele>237</ele>
        <time>2018-04-16T09:10:15Z</time>
      </trkpt>
      <trkpt lat="47.15492" lon="5.5439">
        <ele>233</ele>
        <time>2018-04-16T09:10:22Z</time>
      </trkpt>
      <trkpt lat="47.15485" lon="5.54398">
        <ele>233</ele>
        <time>2018-04-16T09:10:32Z</time>
      </trkpt>
      <trkpt lat="47.15479" lon="5.5442">
        <ele>235</ele>
        <time>2018-04-16T09:10:50Z</time>
      </trkpt>
      <trkpt lat="47.15476" lon="5.54433">
        <ele>235</ele>
        <time>2018-04-16T09:10:57Z</time>
      </trkpt>
      <trkpt lat="47.15473" lon="5.54445">
        <ele>235</ele>
        <time>2018-04-16T09:11:04Z</time>
      </trkpt>
      <trkpt lat="47.15473" lon="5.5446">
        <ele>235</ele>
        <time>2018-04-16T09:11:20Z</time>
      </trkpt>
      <trkpt lat="47.15467" lon="5.5447">
        <ele>235</ele>
        <time>2018-04-16T09:11:28Z</time>
      </trkpt>
      <trkpt lat="47.15461" lon="5.54482">
        <ele>235</ele>
        <time>2018-04-16T09:11:37Z</time>
      </trkpt>
      <trkpt lat="47.15445" lon="5.54495">
        <ele>235</ele>
        <time>2018-04-16T09:11:53Z</time>
      </trkpt>
      <trkpt lat="47.15438" lon="5.54503">
        <ele>235</ele>
        <time>2018-04-16T09:12:01Z</time>
      </trkpt>
      <trkpt lat="47.15429" lon="5.54507">
        <ele>235</ele>
        <time>2018-04-16T09:12:10Z</time>
      </trkpt>
      <trkpt lat="47.15417" lon="5.54513">
        <ele>235</ele>
        <time>2018-04-16T09:12:22Z</time>
      </trkpt>
      <trkpt lat="47.15399" lon="5.54527">
        <ele>233</ele>
        <time>2018-04-16T09:12:39Z</time>
      </trkpt>
      <trkpt lat="47.15391" lon="5.54532">
        <ele>232</ele>
        <time>2018-04-16T09:12:47Z</time>
      </trkpt>
      <trkpt lat="47.15383" lon="5.5454">
        <ele>232</ele>
        <time>2018-04-16T09:12:55Z</time>
      </trkpt>
      <trkpt lat="47.15375" lon="5.5455">
        <ele>232</ele>
        <time>2018-04-16T09:13:03Z</time>
      </trkpt>
      <trkpt lat="47.1537" lon="5.54561">
        <ele>232</ele>
        <time>2018-04-16T09:13:12Z</time>
      </trkpt>
      <trkpt lat="47.15352" lon="5.54573">
        <ele>232</ele>
        <time>2018-04-16T09:13:25Z</time>
      </trkpt>
      <trkpt lat="47.15334" lon="5.54582">
        <ele>232</ele>
        <time>2018-04-16T09:13:45Z</time>
      </trkpt>
      <trkpt lat="47.15324" lon="5.54582">
        <ele>230</ele>
        <time>2018-04-16T09:13:51Z</time>
      </trkpt>
      <trkpt lat="47.15306" lon="5.54587">
        <ele>230</ele>
        <time>2018-04-16T09:14:06Z</time>
      </trkpt>
      <trkpt lat="47.15297" lon="5.54593">
        <ele>230</ele>
        <time>2018-04-16T09:14:14Z</time>
      </trkpt>
      <trkpt lat="47.1529" lon="5.546">
        <ele>229</ele>
        <time>2018-04-16T09:14:22Z</time>
      </trkpt>
      <trkpt lat="47.15279" lon="5.54608">
        <ele>229</ele>
        <time>2018-04-16T09:14:33Z</time>
      </trkpt>
      <trkpt lat="47.15272" lon="5.54616">
        <ele>229</ele>
        <time>2018-04-16T09:14:41Z</time>
      </trkpt>
      <trkpt lat="47.15247" lon="5.5464">
        <ele>227</ele>
        <time>2018-04-16T09:15:07Z</time>
      </trkpt>
      <trkpt lat="47.15238" lon="5.54644">
        <ele>227</ele>
        <time>2018-04-16T09:15:15Z</time>
      </trkpt>
      <trkpt lat="47.15229" lon="5.54646">
        <ele>227</ele>
        <time>2018-04-16T09:15:23Z</time>
      </trkpt>
      <trkpt lat="47.15221" lon="5.54653">
        <ele>226</ele>
        <time>2018-04-16T09:15:33Z</time>
      </trkpt>
      <trkpt lat="47.15211" lon="5.54657">
        <ele>226</ele>
        <time>2018-04-16T09:15:41Z</time>
      </trkpt>
      <trkpt lat="47.15199" lon="5.54672">
        <ele>226</ele>
        <time>2018-04-16T09:16:18Z</time>
      </trkpt>
      <trkpt lat="47.15197" lon="5.54672">
        <ele>226</ele>
        <time>2018-04-16T09:19:13Z</time>
      </trkpt>
      <trkpt lat="47.15205" lon="5.54672">
        <ele>226</ele>
        <time>2018-04-16T09:21:27Z</time>
      </trkpt>
      <trkpt lat="47.15213" lon="5.54662">
        <ele>226</ele>
        <time>2018-04-16T09:25:22Z</time>
      </trkpt>
      <trkpt lat="47.15211" lon="5.54652">
        <ele>226</ele>
        <time>2018-04-16T09:26:53Z</time>
      </trkpt>
      <trkpt lat="47.15201" lon="5.54666">
        <ele>226</ele>
        <time>2018-04-16T09:27:27Z</time>
      </trkpt>
      <trkpt lat="47.15192" lon="5.54679">
        <ele>225</ele>
        <time>2018-04-16T09:27:50Z</time>
      </trkpt>
      <trkpt lat="47.15183" lon="5.54682">
        <ele>225</ele>
        <time>2018-04-16T09:27:58Z</time>
      </trkpt>
      <trkpt lat="47.15175" lon="5.54692">
        <ele>225</ele>
        <time>2018-04-16T09:29:18Z</time>
      </trkpt>
      <trkpt lat="47.15173" lon="5.54673">
        <ele>225</ele>
        <time>2018-04-16T09:33:42Z</time>
      </trkpt>
      <trkpt lat="47.15175" lon="5.54686">
        <ele>225</ele>
        <time>2018-04-16T09:34:13Z</time>
      </trkpt>
      <trkpt lat="47.1517" lon="5.54688">
        <ele>225</ele>
        <time>2018-04-16T09:35:07Z</time>
      </trkpt>
      <trkpt lat="47.15166" lon="5.54694">
        <ele>222</ele>
        <time>2018-04-16T09:37:27Z</time>
      </trkpt>
      <trkpt lat="47.15162" lon="5.547">
        <ele>222</ele>
        <time>2018-04-16T09:37:31Z</time>
      </trkpt>
      <trkpt lat="47.1516" lon="5.54706">
        <ele>222</ele>
        <time>2018-04-16T09:37:36Z</time>
      </trkpt>
      <trkpt lat="47.15157" lon="5.54712">
        <ele>222</ele>
        <time>2018-04-16T09:37:40Z</time>
      </trkpt>
      <trkpt lat="47.15145" lon="5.54727">
        <ele>222</ele>
        <time>2018-04-16T09:37:58Z</time>
      </trkpt>
      <trkpt lat="47.15142" lon="5.54734">
        <ele>222</ele>
        <time>2018-04-16T09:38:02Z</time>
      </trkpt>
      <trkpt lat="47.1514" lon="5.54741">
        <ele>222</ele>
        <time>2018-04-16T09:38:06Z</time>
      </trkpt>
      <trkpt lat="47.15138" lon="5.54749">
        <ele>222</ele>
        <time>2018-04-16T09:38:11Z</time>
      </trkpt>
      <trkpt lat="47.15139" lon="5.54756">
        <ele>222</ele>
        <time>2018-04-16T09:38:15Z</time>
      </trkpt>
      <trkpt lat="47.1514" lon="5.54762">
        <ele>222</ele>
        <time>2018-04-16T09:38:19Z</time>
      </trkpt>
      <trkpt lat="47.15141" lon="5.54769">
        <ele>222</ele>
        <time>2018-04-16T09:38:23Z</time>
      </trkpt>
      <trkpt lat="47.15141" lon="5.54776">
        <ele>222</ele>
        <time>2018-04-16T09:38:28Z</time>
      </trkpt>
      <trkpt lat="47.15144" lon="5.54786">
        <ele>222</ele>
        <time>2018-04-16T09:38:37Z</time>
      </trkpt>
      <trkpt lat="47.15147" lon="5.54794">
        <ele>222</ele>
        <time>2018-04-16T09:38:41Z</time>
      </trkpt>
      <trkpt lat="47.15147" lon="5.54801">
        <ele>222</ele>
        <time>2018-04-16T09:38:45Z</time>
      </trkpt>
      <trkpt lat="47.15148" lon="5.5481">
        <ele>222</ele>
        <time>2018-04-16T09:38:49Z</time>
      </trkpt>
      <trkpt lat="47.15152" lon="5.54815">
        <ele>222</ele>
        <time>2018-04-16T09:38:54Z</time>
      </trkpt>
      <trkpt lat="47.15155" lon="5.54821">
        <ele>222</ele>
        <time>2018-04-16T09:38:59Z</time>
      </trkpt>
      <trkpt lat="47.15157" lon="5.54828">
        <ele>222</ele>
        <time>2018-04-16T09:39:03Z</time>
      </trkpt>
      <trkpt lat="47.1516" lon="5.54838">
        <ele>223</ele>
        <time>2018-04-16T09:39:14Z</time>
      </trkpt>
      <trkpt lat="47.15163" lon="5.54843">
        <ele>223</ele>
        <time>2018-04-16T09:39:26Z</time>
      </trkpt>
      <trkpt lat="47.15166" lon="5.54849">
        <ele>223</ele>
        <time>2018-04-16T09:39:44Z</time>
      </trkpt>
      <trkpt lat="47.15165" lon="5.54856">
        <ele>223</ele>
        <time>2018-04-16T09:39:56Z</time>
      </trkpt>
      <trkpt lat="47.15163" lon="5.54861">
        <ele>223</ele>
        <time>2018-04-16T09:40:02Z</time>
      </trkpt>
      <trkpt lat="47.15161" lon="5.54869">
        <ele>223</ele>
        <time>2018-04-16T09:40:08Z</time>
      </trkpt>
      <trkpt lat="47.15155" lon="5.54878">
        <ele>223</ele>
        <time>2018-04-16T09:40:18Z</time>
      </trkpt>
      <trkpt lat="47.15149" lon="5.54883">
        <ele>223</ele>
        <time>2018-04-16T09:40:25Z</time>
      </trkpt>
      <trkpt lat="47.1514" lon="5.54883">
        <ele>223</ele>
        <time>2018-04-16T09:40:33Z</time>
      </trkpt>
      <trkpt lat="47.15129" lon="5.54881">
        <ele>223</ele>
        <time>2018-04-16T09:40:41Z</time>
      </trkpt>
      <trkpt lat="47.15119" lon="5.54877">
        <ele>222</ele>
        <time>2018-04-16T09:40:49Z</time>
      </trkpt>
      <trkpt lat="47.15114" lon="5.54878">
        <ele>222</ele>
        <time>2018-04-16T09:40:53Z</time>
      </trkpt>
      <trkpt lat="47.15109" lon="5.54879">
        <ele>222</ele>
        <time>2018-04-16T09:40:57Z</time>
      </trkpt>
      <trkpt lat="47.15105" lon="5.54878">
        <ele>222</ele>
        <time>2018-04-16T09:41:01Z</time>
      </trkpt>
      <trkpt lat="47.15094" lon="5.54878">
        <ele>222</ele>
        <time>2018-04-16T09:41:11Z</time>
      </trkpt>
      <trkpt lat="47.15077" lon="5.54883">
        <ele>221</ele>
        <time>2018-04-16T09:41:30Z</time>
      </trkpt>
      <trkpt lat="47.15066" lon="5.54893">
        <ele>221</ele>
        <time>2018-04-16T09:41:43Z</time>
      </trkpt>
      <trkpt lat="47.15061" lon="5.54895">
        <ele>221</ele>
        <time>2018-04-16T09:41:48Z</time>
      </trkpt>
      <trkpt lat="47.15056" lon="5.54896">
        <ele>221</ele>
        <time>2018-04-16T09:41:52Z</time>
      </trkpt>
      <trkpt lat="47.15052" lon="5.54895">
        <ele>221</ele>
        <time>2018-04-16T09:41:57Z</time>
      </trkpt>
      <trkpt lat="47.15046" lon="5.54896">
        <ele>221</ele>
        <time>2018-04-16T09:42:02Z</time>
      </trkpt>
      <trkpt lat="47.15041" lon="5.54899">
        <ele>221</ele>
        <time>2018-04-16T09:42:06Z</time>
      </trkpt>
      <trkpt lat="47.15029" lon="5.54909">
        <ele>220</ele>
        <time>2018-04-16T09:42:18Z</time>
      </trkpt>
      <trkpt lat="47.15026" lon="5.54914">
        <ele>220</ele>
        <time>2018-04-16T09:42:22Z</time>
      </trkpt>
      <trkpt lat="47.15023" lon="5.54919">
        <ele>222</ele>
        <time>2018-04-16T09:42:26Z</time>
      </trkpt>
      <trkpt lat="47.15019" lon="5.54924">
        <ele>222</ele>
        <time>2018-04-16T09:42:31Z</time>
      </trkpt>
      <trkpt lat="47.15005" lon="5.54943">
        <ele>222</ele>
        <time>2018-04-16T09:42:50Z</time>
      </trkpt>
      <trkpt lat="47.15001" lon="5.5495">
        <ele>222</ele>
        <time>2018-04-16T09:43:06Z</time>
      </trkpt>
      <trkpt lat="47.14998" lon="5.54956">
        <ele>220</ele>
        <time>2018-04-16T09:43:11Z</time>
      </trkpt>
      <trkpt lat="47.14995" lon="5.54963">
        <ele>220</ele>
        <time>2018-04-16T09:43:16Z</time>
      </trkpt>
      <trkpt lat="47.14992" lon="5.54969">
        <ele>220</ele>
        <time>2018-04-16T09:43:20Z</time>
      </trkpt>
      <trkpt lat="47.14989" lon="5.54974">
        <ele>220</ele>
        <time>2018-04-16T09:43:25Z</time>
      </trkpt>
      <trkpt lat="47.14977" lon="5.54988">
        <ele>220</ele>
        <time>2018-04-16T09:43:40Z</time>
      </trkpt>
      <trkpt lat="47.14973" lon="5.54993">
        <ele>220</ele>
        <time>2018-04-16T09:43:44Z</time>
      </trkpt>
      <trkpt lat="47.1497" lon="5.54999">
        <ele>220</ele>
        <time>2018-04-16T09:43:49Z</time>
      </trkpt>
      <trkpt lat="47.14966" lon="5.55006">
        <ele>220</ele>
        <time>2018-04-16T09:43:56Z</time>
      </trkpt>
      <trkpt lat="47.14962" lon="5.55012">
        <ele>220</ele>
        <time>2018-04-16T09:44:01Z</time>
      </trkpt>
      <trkpt lat="47.14943" lon="5.55031">
        <ele>219</ele>
        <time>2018-04-16T09:44:23Z</time>
      </trkpt>
      <trkpt lat="47.14933" lon="5.55057">
        <ele>219</ele>
        <time>2018-04-16T09:44:41Z</time>
      </trkpt>
      <trkpt lat="47.14931" lon="5.55064">
        <ele>219</ele>
        <time>2018-04-16T09:44:46Z</time>
      </trkpt>
      <trkpt lat="47.14924" lon="5.55077">
        <ele>219</ele>
        <time>2018-04-16T09:44:55Z</time>
      </trkpt>
      <trkpt lat="47.14917" lon="5.55096">
        <ele>218</ele>
        <time>2018-04-16T09:45:10Z</time>
      </trkpt>
      <trkpt lat="47.14904" lon="5.55128">
        <ele>218</ele>
        <time>2018-04-16T09:45:34Z</time>
      </trkpt>
      <trkpt lat="47.14895" lon="5.55127">
        <ele>218</ele>
        <time>2018-04-16T09:45:44Z</time>
      </trkpt>
      <trkpt lat="47.14892" lon="5.55122">
        <ele>218</ele>
        <time>2018-04-16T09:45:48Z</time>
      </trkpt>
      <trkpt lat="47.1487" lon="5.55096">
        <ele>217</ele>
        <time>2018-04-16T09:46:17Z</time>
      </trkpt>
      <trkpt lat="47.14857" lon="5.55086">
        <ele>217</ele>
        <time>2018-04-16T09:46:30Z</time>
      </trkpt>
      <trkpt lat="47.14852" lon="5.55082">
        <ele>216</ele>
        <time>2018-04-16T09:46:34Z</time>
      </trkpt>
      <trkpt lat="47.14843" lon="5.55073">
        <ele>216</ele>
        <time>2018-04-16T09:46:44Z</time>
      </trkpt>
      <trkpt lat="47.14838" lon="5.55068">
        <ele>216</ele>
        <time>2018-04-16T09:46:49Z</time>
      </trkpt>
      <trkpt lat="47.14835" lon="5.55064">
        <ele>216</ele>
        <time>2018-04-16T09:46:53Z</time>
      </trkpt>
      <trkpt lat="47.14833" lon="5.55058">
        <ele>215</ele>
        <time>2018-04-16T09:46:57Z</time>
      </trkpt>
      <trkpt lat="47.14831" lon="5.55048">
        <ele>215</ele>
        <time>2018-04-16T09:47:04Z</time>
      </trkpt>
      <trkpt lat="47.14828" lon="5.55035">
        <ele>215</ele>
        <time>2018-04-16T09:47:12Z</time>
      </trkpt>
      <trkpt lat="47.14828" lon="5.55013">
        <ele>215</ele>
        <time>2018-04-16T09:47:26Z</time>
      </trkpt>
      <trkpt lat="47.14824" lon="5.55007">
        <ele>215</ele>
        <time>2018-04-16T09:47:30Z</time>
      </trkpt>
      <trkpt lat="47.14818" lon="5.54994">
        <ele>215</ele>
        <time>2018-04-16T09:47:40Z</time>
      </trkpt>
      <trkpt lat="47.14815" lon="5.54988">
        <ele>215</ele>
        <time>2018-04-16T09:47:44Z</time>
      </trkpt>
      <trkpt lat="47.14795" lon="5.54945">
        <ele>214</ele>
        <time>2018-04-16T09:48:15Z</time>
      </trkpt>
      <trkpt lat="47.14792" lon="5.5494">
        <ele>215</ele>
        <time>2018-04-16T09:48:19Z</time>
      </trkpt>
      <trkpt lat="47.14787" lon="5.54937">
        <ele>215</ele>
        <time>2018-04-16T09:48:23Z</time>
      </trkpt>
      <trkpt lat="47.14783" lon="5.54937">
        <ele>215</ele>
        <time>2018-04-16T09:48:27Z</time>
      </trkpt>
      <trkpt lat="47.14772" lon="5.54929">
        <ele>215</ele>
        <time>2018-04-16T09:48:39Z</time>
      </trkpt>
      <trkpt lat="47.14764" lon="5.54929">
        <ele>215</ele>
        <time>2018-04-16T09:48:47Z</time>
      </trkpt>
      <trkpt lat="47.14759" lon="5.5493">
        <ele>215</ele>
        <time>2018-04-16T09:48:51Z</time>
      </trkpt>
      <trkpt lat="47.14752" lon="5.54939">
        <ele>215</ele>
        <time>2018-04-16T09:48:57Z</time>
      </trkpt>
      <trkpt lat="47.14749" lon="5.54944">
        <ele>214</ele>
        <time>2018-04-16T09:49:00Z</time>
      </trkpt>
      <trkpt lat="47.14745" lon="5.5495">
        <ele>214</ele>
        <time>2018-04-16T09:49:03Z</time>
      </trkpt>
      <trkpt lat="47.14737" lon="5.54961">
        <ele>214</ele>
        <time>2018-04-16T09:49:11Z</time>
      </trkpt>
      <trkpt lat="47.14731" lon="5.54973">
        <ele>214</ele>
        <time>2018-04-16T09:49:18Z</time>
      </trkpt>
      <trkpt lat="47.14728" lon="5.5498">
        <ele>214</ele>
        <time>2018-04-16T09:49:22Z</time>
      </trkpt>
      <trkpt lat="47.14705" lon="5.55029">
        <ele>212</ele>
        <time>2018-04-16T09:49:54Z</time>
      </trkpt>
      <trkpt lat="47.14683" lon="5.55077">
        <ele>212</ele>
        <time>2018-04-16T09:50:26Z</time>
      </trkpt>
      <trkpt lat="47.1466" lon="5.55107">
        <ele>211</ele>
        <time>2018-04-16T09:50:52Z</time>
      </trkpt>
      <trkpt lat="47.14657" lon="5.55114">
        <ele>211</ele>
        <time>2018-04-16T09:50:56Z</time>
      </trkpt>
      <trkpt lat="47.14654" lon="5.55127">
        <ele>211</ele>
        <time>2018-04-16T09:51:04Z</time>
      </trkpt>
      <trkpt lat="47.14653" lon="5.55134">
        <ele>211</ele>
        <time>2018-04-16T09:51:08Z</time>
      </trkpt>
      <trkpt lat="47.14652" lon="5.55141">
        <ele>211</ele>
        <time>2018-04-16T09:51:12Z</time>
      </trkpt>
      <trkpt lat="47.14639" lon="5.55169">
        <ele>210</ele>
        <time>2018-04-16T09:51:33Z</time>
      </trkpt>
      <trkpt lat="47.14636" lon="5.55185">
        <ele>210</ele>
        <time>2018-04-16T09:51:41Z</time>
      </trkpt>
      <trkpt lat="47.14634" lon="5.55191">
        <ele>210</ele>
        <time>2018-04-16T09:51:46Z</time>
      </trkpt>
      <trkpt lat="47.14635" lon="5.55199">
        <ele>210</ele>
        <time>2018-04-16T09:51:51Z</time>
      </trkpt>
      <trkpt lat="47.14636" lon="5.55205">
        <ele>210</ele>
        <time>2018-04-16T09:51:56Z</time>
      </trkpt>
      <trkpt lat="47.14636" lon="5.55222">
        <ele>210</ele>
        <time>2018-04-16T09:52:10Z</time>
      </trkpt>
      <trkpt lat="47.14635" lon="5.55229">
        <ele>210</ele>
        <time>2018-04-16T09:52:15Z</time>
      </trkpt>
      <trkpt lat="47.14638" lon="5.55225">
        <ele>210</ele>
        <time>2018-04-16T09:56:05Z</time>
      </trkpt>
    </trkseg>
  </trk>
</gpx>